<?xml version="1.0" encoding="UTF-8" standalone="no" ?>
<gpx xmlns="http://www.topografix.com/GPX/1/1" xmlns:xsi="http://www.w3.org/2001/XMLSchema-instance" xsi:schemaLocation="http://www.topografix.com/GPX/1/1 http://www.topografix.com/GPX/1/1/gpx.xsd" version="1.1" creator="VisuGPX - https://www.visugpx.com">
  <metadata>
    <name>VILLEREAL-14juillet</name>
  </metadata>
  <trk>
    <name><![CDATA[P1 - Targon - Miramont]]></name>
    <extensions>
      <line xmlns="http://www.topografix.com/GPX/gpx_style/0/2">
        <color>0000FF</color>
        <width>4</width>
      </line>
    </extensions>
    <trkseg>
      <trkpt lat="44.73055" lon="-0.25057">
        <ele>69.418159</ele>
        <time>2022-07-11T12:55:22.257Z</time>
      </trkpt>
      <trkpt lat="44.72948" lon="-0.24767">
        <ele>70.155224</ele>
        <time>2022-07-11T12:56:09.834Z</time>
      </trkpt>
      <trkpt lat="44.72891" lon="-0.24616">
        <ele>70.276634</ele>
        <time>2022-07-11T12:56:31.354Z</time>
      </trkpt>
      <trkpt lat="44.7288" lon="-0.24565">
        <ele>70.245267</ele>
        <time>2022-07-11T12:56:37.868Z</time>
      </trkpt>
      <trkpt lat="44.72861" lon="-0.24334">
        <ele>70.810693</ele>
        <time>2022-07-11T12:57:06.760Z</time>
      </trkpt>
      <trkpt lat="44.72842" lon="-0.24162">
        <ele>73.057742</ele>
        <time>2022-07-11T12:57:36.125Z</time>
      </trkpt>
      <trkpt lat="44.72728" lon="-0.2337">
        <ele>92.358843</ele>
        <time>2022-07-11T13:00:48.628Z</time>
      </trkpt>
      <trkpt lat="44.72703" lon="-0.23033">
        <ele>92.498607</ele>
        <time>2022-07-11T13:01:27.637Z</time>
      </trkpt>
      <trkpt lat="44.72703" lon="-0.23025">
        <ele>92.452305</ele>
        <time>2022-07-11T13:01:28.457Z</time>
      </trkpt>
      <trkpt lat="44.72678" lon="-0.22629">
        <ele>91.485176</ele>
        <time>2022-07-11T13:02:14.633Z</time>
      </trkpt>
      <trkpt lat="44.72661" lon="-0.22398">
        <ele>93.051661</ele>
        <time>2022-07-11T13:02:56.526Z</time>
      </trkpt>
      <trkpt lat="44.72652" lon="-0.22349">
        <ele>93.48375</ele>
        <time>2022-07-11T13:03:05.596Z</time>
      </trkpt>
      <trkpt lat="44.7263" lon="-0.22288">
        <ele>94.066992</ele>
        <time>2022-07-11T13:03:16.391Z</time>
      </trkpt>
      <trkpt lat="44.72596" lon="-0.22235">
        <ele>94.365414</ele>
        <time>2022-07-11T13:03:25.654Z</time>
      </trkpt>
      <trkpt lat="44.72541" lon="-0.22169">
        <ele>93.802925</ele>
        <time>2022-07-11T13:03:37.329Z</time>
      </trkpt>
      <trkpt lat="44.72415" lon="-0.22021">
        <ele>92.809363</ele>
        <time>2022-07-11T13:04:03.065Z</time>
      </trkpt>
      <trkpt lat="44.7241" lon="-0.22014">
        <ele>92.778768</ele>
        <time>2022-07-11T13:04:04.366Z</time>
      </trkpt>
      <trkpt lat="44.72405" lon="-0.22008">
        <ele>92.754807</ele>
        <time>2022-07-11T13:04:05.404Z</time>
      </trkpt>
      <trkpt lat="44.72309" lon="-0.21892">
        <ele>92.291999</ele>
        <time>2022-07-11T13:04:28.720Z</time>
      </trkpt>
      <trkpt lat="44.72271" lon="-0.21831">
        <ele>92.133013</ele>
        <time>2022-07-11T13:04:40.225Z</time>
      </trkpt>
      <trkpt lat="44.72243" lon="-0.21766">
        <ele>91.983039</ele>
        <time>2022-07-11T13:04:49.418Z</time>
      </trkpt>
      <trkpt lat="44.72214" lon="-0.21658">
        <ele>90.870132</ele>
        <time>2022-07-11T13:05:01.991Z</time>
      </trkpt>
      <trkpt lat="44.72193" lon="-0.21553">
        <ele>89.173761</ele>
        <time>2022-07-11T13:05:13.103Z</time>
      </trkpt>
      <trkpt lat="44.72134" lon="-0.20971">
        <ele>77.884699</ele>
        <time>2022-07-11T13:06:11.531Z</time>
      </trkpt>
      <trkpt lat="44.72061" lon="-0.20555">
        <ele>67.715619</ele>
        <time>2022-07-11T13:06:53.130Z</time>
      </trkpt>
      <trkpt lat="44.72061" lon="-0.20479">
        <ele>65.786239</ele>
        <time>2022-07-11T13:07:00.213Z</time>
      </trkpt>
      <trkpt lat="44.72071" lon="-0.2041">
        <ele>63.883089</ele>
        <time>2022-07-11T13:07:06.665Z</time>
      </trkpt>
      <trkpt lat="44.72118" lon="-0.20207">
        <ele>58.535504</ele>
        <time>2022-07-11T13:07:26.800Z</time>
      </trkpt>
      <trkpt lat="44.72122" lon="-0.20151">
        <ele>57.825771</ele>
        <time>2022-07-11T13:07:32.504Z</time>
      </trkpt>
      <trkpt lat="44.72116" lon="-0.19976">
        <ele>55.874948</ele>
        <time>2022-07-11T13:07:51.931Z</time>
      </trkpt>
      <trkpt lat="44.72114" lon="-0.19922">
        <ele>56.408892</ele>
        <time>2022-07-11T13:07:59.581Z</time>
      </trkpt>
      <trkpt lat="44.72092" lon="-0.19874">
        <ele>56.973208</ele>
        <time>2022-07-11T13:08:09.185Z</time>
      </trkpt>
      <trkpt lat="44.7204" lon="-0.19691">
        <ele>59.603838</ele>
        <time>2022-07-11T13:08:48.247Z</time>
      </trkpt>
      <trkpt lat="44.71964" lon="-0.19702">
        <ele>61.77211</ele>
        <time>2022-07-11T13:09:11.971Z</time>
      </trkpt>
      <trkpt lat="44.71807" lon="-0.19729">
        <ele>66.44854</ele>
        <time>2022-07-11T13:10:17.809Z</time>
      </trkpt>
      <trkpt lat="44.71564" lon="-0.19592">
        <ele>74.261829</ele>
        <time>2022-07-11T13:12:08.058Z</time>
      </trkpt>
      <trkpt lat="44.71484" lon="-0.19546">
        <ele>75.689964</ele>
        <time>2022-07-11T13:12:40.810Z</time>
      </trkpt>
      <trkpt lat="44.71276" lon="-0.19458">
        <ele>77.958161</ele>
        <time>2022-07-11T13:13:53.108Z</time>
      </trkpt>
      <trkpt lat="44.71187" lon="-0.19396">
        <ele>78.374209</ele>
        <time>2022-07-11T13:14:22.593Z</time>
      </trkpt>
      <trkpt lat="44.71087" lon="-0.19306">
        <ele>78.624114</ele>
        <time>2022-07-11T13:14:58.217Z</time>
      </trkpt>
      <trkpt lat="44.71084" lon="-0.19322">
        <ele>78.648171</ele>
        <time>2022-07-11T13:15:00.009Z</time>
      </trkpt>
      <trkpt lat="44.71087" lon="-0.19306">
        <ele>78.681751</ele>
        <time>2022-07-11T13:15:02.940Z</time>
      </trkpt>
      <trkpt lat="44.71087" lon="-0.19263">
        <ele>78.783835</ele>
        <time>2022-07-11T13:15:09.131Z</time>
      </trkpt>
      <trkpt lat="44.71079" lon="-0.19203">
        <ele>78.92562</ele>
        <time>2022-07-11T13:15:18.453Z</time>
      </trkpt>
      <trkpt lat="44.71036" lon="-0.18967">
        <ele>78.545233</ele>
        <time>2022-07-11T13:15:49.659Z</time>
      </trkpt>
      <trkpt lat="44.71038" lon="-0.18898">
        <ele>78.088502</ele>
        <time>2022-07-11T13:15:57.333Z</time>
      </trkpt>
      <trkpt lat="44.71063" lon="-0.18725">
        <ele>76.172391</ele>
        <time>2022-07-11T13:16:15.847Z</time>
      </trkpt>
      <trkpt lat="44.71099" lon="-0.18451">
        <ele>72.300727</ele>
        <time>2022-07-11T13:16:46.242Z</time>
      </trkpt>
      <trkpt lat="44.71081" lon="-0.18332">
        <ele>70.658758</ele>
        <time>2022-07-11T13:16:59.711Z</time>
      </trkpt>
      <trkpt lat="44.71059" lon="-0.18036">
        <ele>66.207496</ele>
        <time>2022-07-11T13:17:32.471Z</time>
      </trkpt>
      <trkpt lat="44.71081" lon="-0.17858">
        <ele>62.386138</ele>
        <time>2022-07-11T13:17:51.065Z</time>
      </trkpt>
      <trkpt lat="44.71094" lon="-0.17667">
        <ele>56.888415</ele>
        <time>2022-07-11T13:18:09.876Z</time>
      </trkpt>
      <trkpt lat="44.71094" lon="-0.17612">
        <ele>55.23737</ele>
        <time>2022-07-11T13:18:15.055Z</time>
      </trkpt>
      <trkpt lat="44.71089" lon="-0.17569">
        <ele>53.928541</ele>
        <time>2022-07-11T13:18:19.162Z</time>
      </trkpt>
      <trkpt lat="44.71067" lon="-0.17436">
        <ele>50.455114</ele>
        <time>2022-07-11T13:18:32.448Z</time>
      </trkpt>
      <trkpt lat="44.71053" lon="-0.17345">
        <ele>48.094672</ele>
        <time>2022-07-11T13:18:42.019Z</time>
      </trkpt>
      <trkpt lat="44.71043" lon="-0.173">
        <ele>47.604107</ele>
        <time>2022-07-11T13:18:47.229Z</time>
      </trkpt>
      <trkpt lat="44.71035" lon="-0.17294">
        <ele>47.619408</ele>
        <time>2022-07-11T13:18:48.671Z</time>
      </trkpt>
      <trkpt lat="44.71023" lon="-0.173">
        <ele>47.641511</ele>
        <time>2022-07-11T13:18:50.774Z</time>
      </trkpt>
      <trkpt lat="44.70995" lon="-0.17336">
        <ele>47.708597</ele>
        <time>2022-07-11T13:18:57.702Z</time>
      </trkpt>
      <trkpt lat="44.70984" lon="-0.17337">
        <ele>47.72634</ele>
        <time>2022-07-11T13:18:59.602Z</time>
      </trkpt>
      <trkpt lat="44.70976" lon="-0.17328">
        <ele>47.74461</ele>
        <time>2022-07-11T13:19:01.825Z</time>
      </trkpt>
      <trkpt lat="44.70972" lon="-0.17312">
        <ele>47.765451</ele>
        <time>2022-07-11T13:19:04.426Z</time>
      </trkpt>
      <trkpt lat="44.70976" lon="-0.17265">
        <ele>47.824424</ele>
        <time>2022-07-11T13:19:12.452Z</time>
      </trkpt>
      <trkpt lat="44.70968" lon="-0.1721">
        <ele>48.015394</ele>
        <time>2022-07-11T13:19:22.574Z</time>
      </trkpt>
      <trkpt lat="44.70986" lon="-0.17179">
        <ele>48.696406</ele>
        <time>2022-07-11T13:19:30.406Z</time>
      </trkpt>
      <trkpt lat="44.71001" lon="-0.17128">
        <ele>49.627722</ele>
        <time>2022-07-11T13:19:41.695Z</time>
      </trkpt>
      <trkpt lat="44.71024" lon="-0.17102">
        <ele>50.323967</ele>
        <time>2022-07-11T13:19:50.403Z</time>
      </trkpt>
      <trkpt lat="44.71029" lon="-0.17088">
        <ele>50.592326</ele>
        <time>2022-07-11T13:19:53.734Z</time>
      </trkpt>
      <trkpt lat="44.71031" lon="-0.17072">
        <ele>50.878493</ele>
        <time>2022-07-11T13:19:57.306Z</time>
      </trkpt>
      <trkpt lat="44.71021" lon="-0.17031">
        <ele>51.611912</ele>
        <time>2022-07-11T13:20:06.326Z</time>
      </trkpt>
      <trkpt lat="44.7101" lon="-0.16943">
        <ele>53.065089</ele>
        <time>2022-07-11T13:20:23.655Z</time>
      </trkpt>
      <trkpt lat="44.71009" lon="-0.16927">
        <ele>53.318023</ele>
        <time>2022-07-11T13:20:26.528Z</time>
      </trkpt>
      <trkpt lat="44.71006" lon="-0.16882">
        <ele>54.04495</ele>
        <time>2022-07-11T13:20:35.410Z</time>
      </trkpt>
      <trkpt lat="44.71013" lon="-0.16825">
        <ele>54.959563</ele>
        <time>2022-07-11T13:20:46.957Z</time>
      </trkpt>
      <trkpt lat="44.71014" lon="-0.16814">
        <ele>55.133936</ele>
        <time>2022-07-11T13:20:49.165Z</time>
      </trkpt>
      <trkpt lat="44.71077" lon="-0.16825">
        <ele>56.472855</ele>
        <time>2022-07-11T13:21:05.802Z</time>
      </trkpt>
      <trkpt lat="44.71142" lon="-0.16818">
        <ele>57.650573</ele>
        <time>2022-07-11T13:21:21.996Z</time>
      </trkpt>
      <trkpt lat="44.71135" lon="-0.16656">
        <ele>59.563231</ele>
        <time>2022-07-11T13:21:51.622Z</time>
      </trkpt>
      <trkpt lat="44.71148" lon="-0.16557">
        <ele>60.21397</ele>
        <time>2022-07-11T13:22:08.512Z</time>
      </trkpt>
      <trkpt lat="44.70779" lon="-0.16302">
        <ele>63.541797</ele>
        <time>2022-07-11T13:23:33.892Z</time>
      </trkpt>
      <trkpt lat="44.70567" lon="-0.16155">
        <ele>64.307736</ele>
        <time>2022-07-11T13:24:18.729Z</time>
      </trkpt>
      <trkpt lat="44.70532" lon="-0.16126">
        <ele>64.310719</ele>
        <time>2022-07-11T13:24:25.949Z</time>
      </trkpt>
      <trkpt lat="44.70472" lon="-0.16068">
        <ele>64.31611</ele>
        <time>2022-07-11T13:24:38.770Z</time>
      </trkpt>
      <trkpt lat="44.70368" lon="-0.15946">
        <ele>64.247272</ele>
        <time>2022-07-11T13:25:02.424Z</time>
      </trkpt>
      <trkpt lat="44.70145" lon="-0.1569">
        <ele>64.137265</ele>
        <time>2022-07-11T13:25:53.420Z</time>
      </trkpt>
      <trkpt lat="44.70068" lon="-0.15583">
        <ele>64.350645</ele>
        <time>2022-07-11T13:26:12.625Z</time>
      </trkpt>
      <trkpt lat="44.70025" lon="-0.15533">
        <ele>64.460579</ele>
        <time>2022-07-11T13:26:23.393Z</time>
      </trkpt>
      <trkpt lat="44.69997" lon="-0.1551">
        <ele>64.858029</ele>
        <time>2022-07-11T13:26:30.144Z</time>
      </trkpt>
      <trkpt lat="44.69785" lon="-0.15259">
        <ele>68.597893</ele>
        <time>2022-07-11T13:27:36.317Z</time>
      </trkpt>
      <trkpt lat="44.69766" lon="-0.15236">
        <ele>68.946835</ele>
        <time>2022-07-11T13:27:41.971Z</time>
      </trkpt>
      <trkpt lat="44.69761" lon="-0.15224">
        <ele>69.101864</ele>
        <time>2022-07-11T13:27:44.551Z</time>
      </trkpt>
      <trkpt lat="44.69754" lon="-0.15223">
        <ele>69.201192</ele>
        <time>2022-07-11T13:27:46.107Z</time>
      </trkpt>
      <trkpt lat="44.69747" lon="-0.15222">
        <ele>69.297591</ele>
        <time>2022-07-11T13:27:47.569Z</time>
      </trkpt>
      <trkpt lat="44.6974" lon="-0.15221">
        <ele>69.377447</ele>
        <time>2022-07-11T13:27:49.228Z</time>
      </trkpt>
      <trkpt lat="44.69736" lon="-0.15199">
        <ele>69.520837</ele>
        <time>2022-07-11T13:27:52.982Z</time>
      </trkpt>
      <trkpt lat="44.69538" lon="-0.14968">
        <ele>71.258319</ele>
        <time>2022-07-11T13:28:46.663Z</time>
      </trkpt>
      <trkpt lat="44.69317" lon="-0.14709">
        <ele>71.055287</ele>
        <time>2022-07-11T13:29:36.624Z</time>
      </trkpt>
      <trkpt lat="44.69287" lon="-0.14666">
        <ele>70.942012</ele>
        <time>2022-07-11T13:29:43.702Z</time>
      </trkpt>
      <trkpt lat="44.69247" lon="-0.14591">
        <ele>70.764236</ele>
        <time>2022-07-11T13:29:54.929Z</time>
      </trkpt>
      <trkpt lat="44.69221" lon="-0.14514">
        <ele>70.770452</ele>
        <time>2022-07-11T13:30:05.516Z</time>
      </trkpt>
      <trkpt lat="44.69204" lon="-0.14428">
        <ele>71.314408</ele>
        <time>2022-07-11T13:30:17.797Z</time>
      </trkpt>
      <trkpt lat="44.69165" lon="-0.13988">
        <ele>74.991099</ele>
        <time>2022-07-11T13:31:31.368Z</time>
      </trkpt>
      <trkpt lat="44.69144" lon="-0.13735">
        <ele>77.014777</ele>
        <time>2022-07-11T13:32:10.886Z</time>
      </trkpt>
      <trkpt lat="44.69129" lon="-0.13644">
        <ele>77.734611</ele>
        <time>2022-07-11T13:32:25.668Z</time>
      </trkpt>
      <trkpt lat="44.69106" lon="-0.13564">
        <ele>78.39805</ele>
        <time>2022-07-11T13:32:39.381Z</time>
      </trkpt>
      <trkpt lat="44.69049" lon="-0.13435">
        <ele>79.380295</ele>
        <time>2022-07-11T13:33:03.174Z</time>
      </trkpt>
      <trkpt lat="44.69027" lon="-0.134">
        <ele>79.673252</ele>
        <time>2022-07-11T13:33:10.137Z</time>
      </trkpt>
      <trkpt lat="44.68835" lon="-0.13174">
        <ele>81.45764</ele>
        <time>2022-07-11T13:34:00.764Z</time>
      </trkpt>
      <trkpt lat="44.68738" lon="-0.13018">
        <ele>82.603495</ele>
        <time>2022-07-11T13:34:32.571Z</time>
      </trkpt>
      <trkpt lat="44.68668" lon="-0.12858">
        <ele>82.923077</ele>
        <time>2022-07-11T13:34:59.067Z</time>
      </trkpt>
      <trkpt lat="44.6854" lon="-0.12444">
        <ele>81.66396</ele>
        <time>2022-07-11T13:35:52.417Z</time>
      </trkpt>
      <trkpt lat="44.68497" lon="-0.12285">
        <ele>81.181355</ele>
        <time>2022-07-11T13:36:12.601Z</time>
      </trkpt>
      <trkpt lat="44.68474" lon="-0.12119">
        <ele>81.225709</ele>
        <time>2022-07-11T13:36:34.307Z</time>
      </trkpt>
      <trkpt lat="44.6847" lon="-0.11996">
        <ele>81.270096</ele>
        <time>2022-07-11T13:36:51.144Z</time>
      </trkpt>
      <trkpt lat="44.68477" lon="-0.11336">
        <ele>81.774352</ele>
        <time>2022-07-11T13:38:15.265Z</time>
      </trkpt>
      <trkpt lat="44.68472" lon="-0.11323">
        <ele>81.795526</ele>
        <time>2022-07-11T13:38:17.353Z</time>
      </trkpt>
      <trkpt lat="44.68467" lon="-0.11314">
        <ele>81.811624</ele>
        <time>2022-07-11T13:38:18.971Z</time>
      </trkpt>
      <trkpt lat="44.68474" lon="-0.11284">
        <ele>81.990984</ele>
        <time>2022-07-11T13:38:23.869Z</time>
      </trkpt>
      <trkpt lat="44.68478" lon="-0.11265">
        <ele>82.123964</ele>
        <time>2022-07-11T13:38:26.789Z</time>
      </trkpt>
      <trkpt lat="44.68483" lon="-0.10765">
        <ele>84.382478</ele>
        <time>2022-07-11T13:39:45.064Z</time>
      </trkpt>
      <trkpt lat="44.68482" lon="-0.10742">
        <ele>84.010791</ele>
        <time>2022-07-11T13:39:47.459Z</time>
      </trkpt>
      <trkpt lat="44.68485" lon="-0.10601">
        <ele>81.749884</ele>
        <time>2022-07-11T13:40:01.344Z</time>
      </trkpt>
      <trkpt lat="44.68493" lon="-0.10527">
        <ele>80.616375</ele>
        <time>2022-07-11T13:40:08.296Z</time>
      </trkpt>
      <trkpt lat="44.68515" lon="-0.10445">
        <ele>79.404982</ele>
        <time>2022-07-11T13:40:16.920Z</time>
      </trkpt>
      <trkpt lat="44.68542" lon="-0.10387">
        <ele>78.454922</ele>
        <time>2022-07-11T13:40:24.264Z</time>
      </trkpt>
      <trkpt lat="44.68582" lon="-0.10326">
        <ele>77.496185</ele>
        <time>2022-07-11T13:40:34.437Z</time>
      </trkpt>
      <trkpt lat="44.68619" lon="-0.10291">
        <ele>77.598881</ele>
        <time>2022-07-11T13:40:42.628Z</time>
      </trkpt>
      <trkpt lat="44.68644" lon="-0.10272">
        <ele>77.666412</ele>
        <time>2022-07-11T13:40:48.623Z</time>
      </trkpt>
      <trkpt lat="44.68786" lon="-0.10192">
        <ele>77.642847</ele>
        <time>2022-07-11T13:41:17.884Z</time>
      </trkpt>
      <trkpt lat="44.6883" lon="-0.10157">
        <ele>77.409858</ele>
        <time>2022-07-11T13:41:26.475Z</time>
      </trkpt>
      <trkpt lat="44.68874" lon="-0.10094">
        <ele>77.122409</ele>
        <time>2022-07-11T13:41:36.638Z</time>
      </trkpt>
      <trkpt lat="44.68906" lon="-0.10027">
        <ele>76.119621</ele>
        <time>2022-07-11T13:41:45.289Z</time>
      </trkpt>
      <trkpt lat="44.68923" lon="-0.0997">
        <ele>75.196911</ele>
        <time>2022-07-11T13:41:51.926Z</time>
      </trkpt>
      <trkpt lat="44.69045" lon="-0.09374">
        <ele>65.666224</ele>
        <time>2022-07-11T13:42:55.378Z</time>
      </trkpt>
      <trkpt lat="44.69051" lon="-0.09303">
        <ele>64.39499</ele>
        <time>2022-07-11T13:43:02.756Z</time>
      </trkpt>
      <trkpt lat="44.69047" lon="-0.08945">
        <ele>58.152201</ele>
        <time>2022-07-11T13:43:38.623Z</time>
      </trkpt>
      <trkpt lat="44.69047" lon="-0.08911">
        <ele>57.569951</ele>
        <time>2022-07-11T13:43:42.114Z</time>
      </trkpt>
      <trkpt lat="44.69047" lon="-0.08883">
        <ele>57.099475</ele>
        <time>2022-07-11T13:43:44.983Z</time>
      </trkpt>
      <trkpt lat="44.69042" lon="-0.08856">
        <ele>56.62156</ele>
        <time>2022-07-11T13:43:47.950Z</time>
      </trkpt>
      <trkpt lat="44.69026" lon="-0.08774">
        <ele>55.79617</ele>
        <time>2022-07-11T13:43:57.490Z</time>
      </trkpt>
      <trkpt lat="44.69005" lon="-0.08729">
        <ele>55.279536</ele>
        <time>2022-07-11T13:44:03.619Z</time>
      </trkpt>
      <trkpt lat="44.68942" lon="-0.0859">
        <ele>53.802122</ele>
        <time>2022-07-11T13:44:23.176Z</time>
      </trkpt>
      <trkpt lat="44.68819" lon="-0.08428">
        <ele>52.148531</ele>
        <time>2022-07-11T13:44:51.161Z</time>
      </trkpt>
      <trkpt lat="44.68744" lon="-0.08341">
        <ele>51.413125</ele>
        <time>2022-07-11T13:45:07.041Z</time>
      </trkpt>
      <trkpt lat="44.68676" lon="-0.08284">
        <ele>50.938162</ele>
        <time>2022-07-11T13:45:21.649Z</time>
      </trkpt>
      <trkpt lat="44.68638" lon="-0.08235">
        <ele>50.851752</ele>
        <time>2022-07-11T13:45:31.019Z</time>
      </trkpt>
      <trkpt lat="44.68672" lon="-0.08177">
        <ele>50.760208</ele>
        <time>2022-07-11T13:45:44.323Z</time>
      </trkpt>
      <trkpt lat="44.68674" lon="-0.08161">
        <ele>50.740967</ele>
        <time>2022-07-11T13:45:46.803Z</time>
      </trkpt>
      <trkpt lat="44.68595" lon="-0.08043">
        <ele>50.222866</ele>
        <time>2022-07-11T13:46:12.236Z</time>
      </trkpt>
      <trkpt lat="44.68597" lon="-0.08035">
        <ele>50.189067</ele>
        <time>2022-07-11T13:46:13.388Z</time>
      </trkpt>
      <trkpt lat="44.68537" lon="-0.07987">
        <ele>49.769695</ele>
        <time>2022-07-11T13:46:24.275Z</time>
      </trkpt>
      <trkpt lat="44.68501" lon="-0.07945">
        <ele>49.968757</ele>
        <time>2022-07-11T13:46:32.366Z</time>
      </trkpt>
      <trkpt lat="44.68468" lon="-0.07895">
        <ele>51.170253</ele>
        <time>2022-07-11T13:46:42.786Z</time>
      </trkpt>
      <trkpt lat="44.68428" lon="-0.0781">
        <ele>52.961174</ele>
        <time>2022-07-11T13:47:04.364Z</time>
      </trkpt>
      <trkpt lat="44.68418" lon="-0.07783">
        <ele>53.489884</ele>
        <time>2022-07-11T13:47:11.949Z</time>
      </trkpt>
      <trkpt lat="44.68393" lon="-0.07689">
        <ele>56.023228</ele>
        <time>2022-07-11T13:47:39.043Z</time>
      </trkpt>
      <trkpt lat="44.68388" lon="-0.07668">
        <ele>56.645374</ele>
        <time>2022-07-11T13:47:44.876Z</time>
      </trkpt>
      <trkpt lat="44.68377" lon="-0.07625">
        <ele>57.943199</ele>
        <time>2022-07-11T13:47:56.788Z</time>
      </trkpt>
      <trkpt lat="44.6835" lon="-0.07534">
        <ele>60.739214</ele>
        <time>2022-07-11T13:48:19.483Z</time>
      </trkpt>
      <trkpt lat="44.68323" lon="-0.07488">
        <ele>61.732768</ele>
        <time>2022-07-11T13:48:30.907Z</time>
      </trkpt>
      <trkpt lat="44.6831" lon="-0.07479">
        <ele>61.974984</ele>
        <time>2022-07-11T13:48:34.802Z</time>
      </trkpt>
      <trkpt lat="44.68321" lon="-0.0745">
        <ele>62.366645</ele>
        <time>2022-07-11T13:48:40.159Z</time>
      </trkpt>
      <trkpt lat="44.6832" lon="-0.07441">
        <ele>62.479552</ele>
        <time>2022-07-11T13:48:41.820Z</time>
      </trkpt>
      <trkpt lat="44.68303" lon="-0.07375">
        <ele>63.328611</ele>
        <time>2022-07-11T13:48:53.349Z</time>
      </trkpt>
      <trkpt lat="44.68292" lon="-0.07306">
        <ele>64.191518</ele>
        <time>2022-07-11T13:49:04.766Z</time>
      </trkpt>
      <trkpt lat="44.68277" lon="-0.07138">
        <ele>65.557839</ele>
        <time>2022-07-11T13:49:32.169Z</time>
      </trkpt>
      <trkpt lat="44.68274" lon="-0.07081">
        <ele>66.019012</ele>
        <time>2022-07-11T13:49:41.205Z</time>
      </trkpt>
      <trkpt lat="44.68271" lon="-0.07043">
        <ele>66.305847</ele>
        <time>2022-07-11T13:49:46.891Z</time>
      </trkpt>
      <trkpt lat="44.6825" lon="-0.06775">
        <ele>67.653259</ele>
        <time>2022-07-11T13:50:25.580Z</time>
      </trkpt>
      <trkpt lat="44.68253" lon="-0.06706">
        <ele>68.131928</ele>
        <time>2022-07-11T13:50:36.529Z</time>
      </trkpt>
      <trkpt lat="44.68257" lon="-0.06585">
        <ele>68.957164</ele>
        <time>2022-07-11T13:50:55.394Z</time>
      </trkpt>
      <trkpt lat="44.6824" lon="-0.06394">
        <ele>70.52171</ele>
        <time>2022-07-11T13:51:24.843Z</time>
      </trkpt>
      <trkpt lat="44.6827" lon="-0.06051">
        <ele>74.852719</ele>
        <time>2022-07-11T13:52:24.459Z</time>
      </trkpt>
      <trkpt lat="44.68281" lon="-0.06008">
        <ele>76.058664</ele>
        <time>2022-07-11T13:52:35.325Z</time>
      </trkpt>
      <trkpt lat="44.68369" lon="-0.05776">
        <ele>83.617939</ele>
        <time>2022-07-11T13:53:42.499Z</time>
      </trkpt>
      <trkpt lat="44.68387" lon="-0.05706">
        <ele>85.477255</ele>
        <time>2022-07-11T13:54:00.280Z</time>
      </trkpt>
      <trkpt lat="44.684" lon="-0.05576">
        <ele>88.791925</ele>
        <time>2022-07-11T13:54:29.479Z</time>
      </trkpt>
      <trkpt lat="44.68403" lon="-0.05438">
        <ele>89.926114</ele>
        <time>2022-07-11T13:54:52.855Z</time>
      </trkpt>
      <trkpt lat="44.68403" lon="-0.05391">
        <ele>90.307666</ele>
        <time>2022-07-11T13:55:00.102Z</time>
      </trkpt>
      <trkpt lat="44.68413" lon="-0.05328">
        <ele>90.837481</ele>
        <time>2022-07-11T13:55:09.334Z</time>
      </trkpt>
      <trkpt lat="44.68537" lon="-0.04846">
        <ele>87.29039</ele>
        <time>2022-07-11T13:56:06.374Z</time>
      </trkpt>
      <trkpt lat="44.68554" lon="-0.04747">
        <ele>87.533551</ele>
        <time>2022-07-11T13:56:19.277Z</time>
      </trkpt>
      <trkpt lat="44.68567" lon="-0.04499">
        <ele>88.183281</ele>
        <time>2022-07-11T13:56:56.832Z</time>
      </trkpt>
      <trkpt lat="44.6857" lon="-0.04402">
        <ele>88.462481</ele>
        <time>2022-07-11T13:57:10.228Z</time>
      </trkpt>
      <trkpt lat="44.6858" lon="-0.0422">
        <ele>88.121147</ele>
        <time>2022-07-11T13:57:32.536Z</time>
      </trkpt>
      <trkpt lat="44.68584" lon="-0.04188">
        <ele>87.988412</ele>
        <time>2022-07-11T13:57:36.309Z</time>
      </trkpt>
      <trkpt lat="44.68607" lon="-0.04104">
        <ele>87.632414</ele>
        <time>2022-07-11T13:57:46.436Z</time>
      </trkpt>
      <trkpt lat="44.68661" lon="-0.03977">
        <ele>87.366543</ele>
        <time>2022-07-11T13:58:03.708Z</time>
      </trkpt>
      <trkpt lat="44.68685" lon="-0.03893">
        <ele>87.210267</ele>
        <time>2022-07-11T13:58:15.238Z</time>
      </trkpt>
      <trkpt lat="44.68761" lon="-0.03285">
        <ele>91.092544</ele>
        <time>2022-07-11T13:59:51.349Z</time>
      </trkpt>
      <trkpt lat="44.68777" lon="-0.03199">
        <ele>91.454505</ele>
        <time>2022-07-11T14:00:03.914Z</time>
      </trkpt>
      <trkpt lat="44.68788" lon="-0.03153">
        <ele>91.652645</ele>
        <time>2022-07-11T14:00:10.521Z</time>
      </trkpt>
      <trkpt lat="44.68813" lon="-0.03034">
        <ele>91.594907</ele>
        <time>2022-07-11T14:00:26.154Z</time>
      </trkpt>
      <trkpt lat="44.68814" lon="-0.02986">
        <ele>91.5242</ele>
        <time>2022-07-11T14:00:31.977Z</time>
      </trkpt>
      <trkpt lat="44.68805" lon="-0.02903">
        <ele>91.399169</ele>
        <time>2022-07-11T14:00:42.070Z</time>
      </trkpt>
      <trkpt lat="44.68782" lon="-0.02712">
        <ele>90.929564</ele>
        <time>2022-07-11T14:01:05.359Z</time>
      </trkpt>
      <trkpt lat="44.6877" lon="-0.02653">
        <ele>90.774901</ele>
        <time>2022-07-11T14:01:12.790Z</time>
      </trkpt>
      <trkpt lat="44.68753" lon="-0.02617">
        <ele>90.583876</ele>
        <time>2022-07-11T14:01:18.172Z</time>
      </trkpt>
      <trkpt lat="44.6873" lon="-0.02585">
        <ele>90.332082</ele>
        <time>2022-07-11T14:01:23.676Z</time>
      </trkpt>
      <trkpt lat="44.68658" lon="-0.02451">
        <ele>89.381238</ele>
        <time>2022-07-11T14:01:43.093Z</time>
      </trkpt>
      <trkpt lat="44.68637" lon="-0.02387">
        <ele>88.275652</ele>
        <time>2022-07-11T14:01:50.648Z</time>
      </trkpt>
      <trkpt lat="44.68599" lon="-0.02263">
        <ele>85.828808</ele>
        <time>2022-07-11T14:02:04.427Z</time>
      </trkpt>
      <trkpt lat="44.68515" lon="-0.02123">
        <ele>80.742343</ele>
        <time>2022-07-11T14:02:21.524Z</time>
      </trkpt>
      <trkpt lat="44.6849" lon="-0.02085">
        <ele>79.041288</ele>
        <time>2022-07-11T14:02:26.221Z</time>
      </trkpt>
      <trkpt lat="44.68418" lon="-0.01965">
        <ele>73.841304</ele>
        <time>2022-07-11T14:02:40.278Z</time>
      </trkpt>
      <trkpt lat="44.68396" lon="-0.01921">
        <ele>72.028715</ele>
        <time>2022-07-11T14:02:45.029Z</time>
      </trkpt>
      <trkpt lat="44.68371" lon="-0.01846">
        <ele>69.236662</ele>
        <time>2022-07-11T14:02:52.547Z</time>
      </trkpt>
      <trkpt lat="44.68343" lon="-0.01741">
        <ele>66.660797</ele>
        <time>2022-07-11T14:03:03.297Z</time>
      </trkpt>
      <trkpt lat="44.68304" lon="-0.01596">
        <ele>63.98037</ele>
        <time>2022-07-11T14:03:19.456Z</time>
      </trkpt>
      <trkpt lat="44.6827" lon="-0.01525">
        <ele>62.597568</ele>
        <time>2022-07-11T14:03:29.097Z</time>
      </trkpt>
      <trkpt lat="44.68178" lon="-0.014">
        <ele>59.774756</ele>
        <time>2022-07-11T14:03:47.498Z</time>
      </trkpt>
      <trkpt lat="44.6816" lon="-0.01374">
        <ele>58.884144</ele>
        <time>2022-07-11T14:03:51.031Z</time>
      </trkpt>
      <trkpt lat="44.68126" lon="-0.01293">
        <ele>56.12277</ele>
        <time>2022-07-11T14:04:00.020Z</time>
      </trkpt>
      <trkpt lat="44.6811" lon="-0.01265">
        <ele>55.085134</ele>
        <time>2022-07-11T14:04:03.281Z</time>
      </trkpt>
      <trkpt lat="44.68096" lon="-0.01244">
        <ele>54.232903</ele>
        <time>2022-07-11T14:04:05.928Z</time>
      </trkpt>
      <trkpt lat="44.6803" lon="-0.01169">
        <ele>51.566826</ele>
        <time>2022-07-11T14:04:16.518Z</time>
      </trkpt>
      <trkpt lat="44.68014" lon="-0.01149">
        <ele>51.182883</ele>
        <time>2022-07-11T14:04:19.337Z</time>
      </trkpt>
      <trkpt lat="44.68009" lon="-0.01144">
        <ele>51.071621</ele>
        <time>2022-07-11T14:04:20.170Z</time>
      </trkpt>
      <trkpt lat="44.67925" lon="-0.01043">
        <ele>49.092846</ele>
        <time>2022-07-11T14:04:37.306Z</time>
      </trkpt>
      <trkpt lat="44.6776" lon="-0.00853">
        <ele>56.235986</ele>
        <time>2022-07-11T14:05:48.477Z</time>
      </trkpt>
      <trkpt lat="44.67754" lon="-0.00849">
        <ele>56.515282</ele>
        <time>2022-07-11T14:05:50.860Z</time>
      </trkpt>
      <trkpt lat="44.67729" lon="-0.00844">
        <ele>57.575843</ele>
        <time>2022-07-11T14:06:00.962Z</time>
      </trkpt>
      <trkpt lat="44.67682" lon="-0.00862">
        <ele>59.663303</ele>
        <time>2022-07-11T14:06:18.859Z</time>
      </trkpt>
      <trkpt lat="44.67672" lon="-0.00859">
        <ele>60.058809</ele>
        <time>2022-07-11T14:06:22.583Z</time>
      </trkpt>
      <trkpt lat="44.67668" lon="-0.00854">
        <ele>60.325817</ele>
        <time>2022-07-11T14:06:24.797Z</time>
      </trkpt>
      <trkpt lat="44.67661" lon="-0.0078">
        <ele>62.557668</ele>
        <time>2022-07-11T14:06:42.104Z</time>
      </trkpt>
      <trkpt lat="44.67647" lon="-0.00712">
        <ele>64.195571</ele>
        <time>2022-07-11T14:06:58.100Z</time>
      </trkpt>
      <trkpt lat="44.67639" lon="-0.00687">
        <ele>64.799119</ele>
        <time>2022-07-11T14:07:03.623Z</time>
      </trkpt>
      <trkpt lat="44.67564" lon="-0.00448">
        <ele>70.750736</ele>
        <time>2022-07-11T14:07:58.672Z</time>
      </trkpt>
      <trkpt lat="44.67552" lon="-0.00419">
        <ele>71.543907</ele>
        <time>2022-07-11T14:08:06.288Z</time>
      </trkpt>
      <trkpt lat="44.67501" lon="-0.00337">
        <ele>74.109596</ele>
        <time>2022-07-11T14:08:31.631Z</time>
      </trkpt>
      <trkpt lat="44.67458" lon="-0.00213">
        <ele>76.283068</ele>
        <time>2022-07-11T14:09:01.787Z</time>
      </trkpt>
      <trkpt lat="44.67439" lon="-0.0016">
        <ele>77.179742</ele>
        <time>2022-07-11T14:09:13.503Z</time>
      </trkpt>
      <trkpt lat="44.67349" lon="3.0E-5">
        <ele>76.166173</ele>
        <time>2022-07-11T14:09:38.619Z</time>
      </trkpt>
      <trkpt lat="44.67313" lon="0.00051">
        <ele>75.166757</ele>
        <time>2022-07-11T14:09:45.348Z</time>
      </trkpt>
      <trkpt lat="44.67288" lon="0.00138">
        <ele>72.875821</ele>
        <time>2022-07-11T14:09:53.788Z</time>
      </trkpt>
      <trkpt lat="44.67251" lon="0.00194">
        <ele>70.34932</ele>
        <time>2022-07-11T14:10:00.505Z</time>
      </trkpt>
      <trkpt lat="44.6723" lon="0.00241">
        <ele>68.538833</ele>
        <time>2022-07-11T14:10:05.441Z</time>
      </trkpt>
      <trkpt lat="44.67199" lon="0.00399">
        <ele>65.67994</ele>
        <time>2022-07-11T14:10:21.403Z</time>
      </trkpt>
      <trkpt lat="44.67192" lon="0.00448">
        <ele>65.37928</ele>
        <time>2022-07-11T14:10:27.012Z</time>
      </trkpt>
      <trkpt lat="44.6719" lon="0.00596">
        <ele>64.721397</ele>
        <time>2022-07-11T14:10:51.186Z</time>
      </trkpt>
      <trkpt lat="44.67212" lon="0.00665">
        <ele>64.701219</ele>
        <time>2022-07-11T14:11:05.530Z</time>
      </trkpt>
      <trkpt lat="44.67231" lon="0.0077">
        <ele>64.672075</ele>
        <time>2022-07-11T14:11:18.446Z</time>
      </trkpt>
      <trkpt lat="44.67233" lon="0.00854">
        <ele>63.020601</ele>
        <time>2022-07-11T14:11:26.780Z</time>
      </trkpt>
      <trkpt lat="44.67231" lon="0.01055">
        <ele>57.08651</ele>
        <time>2022-07-11T14:11:44.897Z</time>
      </trkpt>
      <trkpt lat="44.67237" lon="0.01129">
        <ele>56.05763</ele>
        <time>2022-07-11T14:11:51.572Z</time>
      </trkpt>
      <trkpt lat="44.67331" lon="0.0153">
        <ele>54.20613</ele>
        <time>2022-07-11T14:12:41.937Z</time>
      </trkpt>
      <trkpt lat="44.67354" lon="0.0165">
        <ele>58.553917</ele>
        <time>2022-07-11T14:13:16.756Z</time>
      </trkpt>
      <trkpt lat="44.67352" lon="0.01753">
        <ele>62.385541</ele>
        <time>2022-07-11T14:13:50.536Z</time>
      </trkpt>
      <trkpt lat="44.67362" lon="0.01832">
        <ele>64.408244</ele>
        <time>2022-07-11T14:14:13.025Z</time>
      </trkpt>
      <trkpt lat="44.67362" lon="0.01873">
        <ele>65.131261</ele>
        <time>2022-07-11T14:14:22.665Z</time>
      </trkpt>
      <trkpt lat="44.67343" lon="0.01923">
        <ele>66.148358</ele>
        <time>2022-07-11T14:14:32.867Z</time>
      </trkpt>
      <trkpt lat="44.67288" lon="0.02023">
        <ele>68.188298</ele>
        <time>2022-07-11T14:14:51.289Z</time>
      </trkpt>
      <trkpt lat="44.67228" lon="0.02136">
        <ele>69.111147</ele>
        <time>2022-07-11T14:15:08.873Z</time>
      </trkpt>
      <trkpt lat="44.671" lon="0.02376">
        <ele>73.492445</ele>
        <time>2022-07-11T14:16:07.113Z</time>
      </trkpt>
      <trkpt lat="44.6688" lon="0.02786">
        <ele>84.443204</ele>
        <time>2022-07-11T14:17:59.434Z</time>
      </trkpt>
      <trkpt lat="44.66637" lon="0.03243">
        <ele>89.920786</ele>
        <time>2022-07-11T14:19:35.996Z</time>
      </trkpt>
      <trkpt lat="44.66616" lon="0.03273">
        <ele>89.271771</ele>
        <time>2022-07-11T14:19:40.498Z</time>
      </trkpt>
      <trkpt lat="44.66559" lon="0.03325">
        <ele>87.751443</ele>
        <time>2022-07-11T14:19:50.274Z</time>
      </trkpt>
      <trkpt lat="44.66237" lon="0.03581">
        <ele>75.448151</ele>
        <time>2022-07-11T14:20:38.672Z</time>
      </trkpt>
      <trkpt lat="44.66222" lon="0.036">
        <ele>74.899438</ele>
        <time>2022-07-11T14:20:41.927Z</time>
      </trkpt>
      <trkpt lat="44.66199" lon="0.03646">
        <ele>74.171754</ele>
        <time>2022-07-11T14:20:48.900Z</time>
      </trkpt>
      <trkpt lat="44.66113" lon="0.03869">
        <ele>77.475181</ele>
        <time>2022-07-11T14:21:38.690Z</time>
      </trkpt>
      <trkpt lat="44.65994" lon="0.04169">
        <ele>77.838238</ele>
        <time>2022-07-11T14:22:34.227Z</time>
      </trkpt>
      <trkpt lat="44.65977" lon="0.04197">
        <ele>77.087497</ele>
        <time>2022-07-11T14:22:37.951Z</time>
      </trkpt>
      <trkpt lat="44.65853" lon="0.04348">
        <ele>69.178292</ele>
        <time>2022-07-11T14:22:57.869Z</time>
      </trkpt>
      <trkpt lat="44.65814" lon="0.04405">
        <ele>65.348213</ele>
        <time>2022-07-11T14:23:04.578Z</time>
      </trkpt>
      <trkpt lat="44.658" lon="0.0445">
        <ele>62.979736</ele>
        <time>2022-07-11T14:23:08.792Z</time>
      </trkpt>
      <trkpt lat="44.65796" lon="0.04518">
        <ele>59.519184</ele>
        <time>2022-07-11T14:23:14.717Z</time>
      </trkpt>
      <trkpt lat="44.6581" lon="0.04647">
        <ele>52.77923</ele>
        <time>2022-07-11T14:23:25.749Z</time>
      </trkpt>
      <trkpt lat="44.65808" lon="0.04679">
        <ele>51.11167</ele>
        <time>2022-07-11T14:23:28.473Z</time>
      </trkpt>
      <trkpt lat="44.65796" lon="0.04705">
        <ele>49.50856</ele>
        <time>2022-07-11T14:23:31.133Z</time>
      </trkpt>
      <trkpt lat="44.65756" lon="0.04741">
        <ele>46.159299</ele>
        <time>2022-07-11T14:23:36.683Z</time>
      </trkpt>
      <trkpt lat="44.65751" lon="0.04748">
        <ele>45.609419</ele>
        <time>2022-07-11T14:23:37.572Z</time>
      </trkpt>
      <trkpt lat="44.65729" lon="0.04786">
        <ele>43.104946</ele>
        <time>2022-07-11T14:23:41.709Z</time>
      </trkpt>
      <trkpt lat="44.65698" lon="0.04876">
        <ele>38.037717</ele>
        <time>2022-07-11T14:23:50.131Z</time>
      </trkpt>
      <trkpt lat="44.65692" lon="0.04913">
        <ele>36.408842</ele>
        <time>2022-07-11T14:23:53.468Z</time>
      </trkpt>
      <trkpt lat="44.65693" lon="0.04934">
        <ele>35.937239</ele>
        <time>2022-07-11T14:23:55.210Z</time>
      </trkpt>
      <trkpt lat="44.65704" lon="0.04976">
        <ele>34.873742</ele>
        <time>2022-07-11T14:23:59.291Z</time>
      </trkpt>
      <trkpt lat="44.65766" lon="0.05072">
        <ele>31.842163</ele>
        <time>2022-07-11T14:24:12.808Z</time>
      </trkpt>
      <trkpt lat="44.65776" lon="0.05106">
        <ele>30.976309</ele>
        <time>2022-07-11T14:24:16.633Z</time>
      </trkpt>
      <trkpt lat="44.65775" lon="0.05152">
        <ele>30.426435</ele>
        <time>2022-07-11T14:24:21.549Z</time>
      </trkpt>
      <trkpt lat="44.65654" lon="0.0558">
        <ele>26.588889</ele>
        <time>2022-07-11T14:25:13.002Z</time>
      </trkpt>
      <trkpt lat="44.6564" lon="0.05611">
        <ele>26.555958</ele>
        <time>2022-07-11T14:25:17.255Z</time>
      </trkpt>
      <trkpt lat="44.65616" lon="0.05626">
        <ele>26.583628</ele>
        <time>2022-07-11T14:25:21.658Z</time>
      </trkpt>
      <trkpt lat="44.65603" lon="0.05631">
        <ele>26.598222</ele>
        <time>2022-07-11T14:25:24.001Z</time>
      </trkpt>
      <trkpt lat="44.65614" lon="0.05662">
        <ele>26.624382</ele>
        <time>2022-07-11T14:25:28.282Z</time>
      </trkpt>
      <trkpt lat="44.65641" lon="0.05863">
        <ele>27.323868</ele>
        <time>2022-07-11T14:25:58.002Z</time>
      </trkpt>
      <trkpt lat="44.65686" lon="0.06029">
        <ele>28.822145</ele>
        <time>2022-07-11T14:26:27.979Z</time>
      </trkpt>
      <trkpt lat="44.65692" lon="0.06052">
        <ele>28.992044</ele>
        <time>2022-07-11T14:26:32.152Z</time>
      </trkpt>
      <trkpt lat="44.65786" lon="0.06418">
        <ele>30.782172</ele>
        <time>2022-07-11T14:27:30.663Z</time>
      </trkpt>
      <trkpt lat="44.65841" lon="0.06589">
        <ele>30.229656</ele>
        <time>2022-07-11T14:27:52.264Z</time>
      </trkpt>
      <trkpt lat="44.65853" lon="0.06622">
        <ele>29.955324</ele>
        <time>2022-07-11T14:27:56.294Z</time>
      </trkpt>
      <trkpt lat="44.65865" lon="0.06665">
        <ele>29.609314</ele>
        <time>2022-07-11T14:28:01.331Z</time>
      </trkpt>
      <trkpt lat="44.65902" lon="0.06857">
        <ele>28.585161</ele>
        <time>2022-07-11T14:28:23.793Z</time>
      </trkpt>
      <trkpt lat="44.65929" lon="0.06943">
        <ele>28.242903</ele>
        <time>2022-07-11T14:28:35.208Z</time>
      </trkpt>
      <trkpt lat="44.65961" lon="0.07015">
        <ele>28.368506</ele>
        <time>2022-07-11T14:28:46.939Z</time>
      </trkpt>
      <trkpt lat="44.66029" lon="0.07102">
        <ele>29.081864</ele>
        <time>2022-07-11T14:29:06.563Z</time>
      </trkpt>
      <trkpt lat="44.66053" lon="0.07147">
        <ele>29.395058</ele>
        <time>2022-07-11T14:29:15.484Z</time>
      </trkpt>
      <trkpt lat="44.66121" lon="0.07294">
        <ele>30.383823</ele>
        <time>2022-07-11T14:29:42.602Z</time>
      </trkpt>
      <trkpt lat="44.66273" lon="0.07596">
        <ele>31.7648</ele>
        <time>2022-07-11T14:30:34.420Z</time>
      </trkpt>
      <trkpt lat="44.66302" lon="0.07786">
        <ele>31.772619</ele>
        <time>2022-07-11T14:30:59.378Z</time>
      </trkpt>
      <trkpt lat="44.6639" lon="0.08372">
        <ele>29.507344</ele>
        <time>2022-07-11T14:32:10.336Z</time>
      </trkpt>
      <trkpt lat="44.66435" lon="0.08566">
        <ele>28.414891</ele>
        <time>2022-07-11T14:32:33.728Z</time>
      </trkpt>
      <trkpt lat="44.66486" lon="0.08729">
        <ele>27.632217</ele>
        <time>2022-07-11T14:32:54.231Z</time>
      </trkpt>
      <trkpt lat="44.66583" lon="0.09044">
        <ele>27.067219</ele>
        <time>2022-07-11T14:33:36.581Z</time>
      </trkpt>
      <trkpt lat="44.666" lon="0.09081">
        <ele>27.163278</ele>
        <time>2022-07-11T14:33:42.812Z</time>
      </trkpt>
      <trkpt lat="44.6666" lon="0.09162">
        <ele>27.421392</ele>
        <time>2022-07-11T14:33:59.249Z</time>
      </trkpt>
      <trkpt lat="44.66705" lon="0.09234">
        <ele>27.574536</ele>
        <time>2022-07-11T14:34:12.466Z</time>
      </trkpt>
      <trkpt lat="44.66751" lon="0.09308">
        <ele>27.559142</ele>
        <time>2022-07-11T14:34:25.342Z</time>
      </trkpt>
      <trkpt lat="44.66845" lon="0.09435">
        <ele>27.557974</ele>
        <time>2022-07-11T14:34:47.537Z</time>
      </trkpt>
      <trkpt lat="44.66885" lon="0.09539">
        <ele>27.601318</ele>
        <time>2022-07-11T14:35:02.785Z</time>
      </trkpt>
      <trkpt lat="44.67005" lon="0.09781">
        <ele>28.148485</ele>
        <time>2022-07-11T14:35:43.100Z</time>
      </trkpt>
      <trkpt lat="44.67034" lon="0.09971">
        <ele>28.599991</ele>
        <time>2022-07-11T14:36:08.725Z</time>
      </trkpt>
      <trkpt lat="44.67109" lon="0.10319">
        <ele>29.885021</ele>
        <time>2022-07-11T14:36:59.550Z</time>
      </trkpt>
      <trkpt lat="44.67145" lon="0.10426">
        <ele>30.77102</ele>
        <time>2022-07-11T14:37:18.805Z</time>
      </trkpt>
      <trkpt lat="44.67154" lon="0.10443">
        <ele>30.931576</ele>
        <time>2022-07-11T14:37:22.468Z</time>
      </trkpt>
      <trkpt lat="44.67179" lon="0.10508">
        <ele>31.483317</ele>
        <time>2022-07-11T14:37:34.222Z</time>
      </trkpt>
      <trkpt lat="44.67183" lon="0.1055">
        <ele>31.712434</ele>
        <time>2022-07-11T14:37:40.829Z</time>
      </trkpt>
      <trkpt lat="44.6718" lon="0.10706">
        <ele>32.014006</ele>
        <time>2022-07-11T14:38:02.813Z</time>
      </trkpt>
      <trkpt lat="44.67205" lon="0.11032">
        <ele>31.802763</ele>
        <time>2022-07-11T14:38:41.919Z</time>
      </trkpt>
      <trkpt lat="44.67256" lon="0.11216">
        <ele>33.911914</ele>
        <time>2022-07-11T14:39:15.510Z</time>
      </trkpt>
      <trkpt lat="44.67269" lon="0.11243">
        <ele>34.273486</ele>
        <time>2022-07-11T14:39:22.065Z</time>
      </trkpt>
      <trkpt lat="44.67283" lon="0.11259">
        <ele>34.561373</ele>
        <time>2022-07-11T14:39:27.350Z</time>
      </trkpt>
      <trkpt lat="44.67292" lon="0.11262">
        <ele>34.678407</ele>
        <time>2022-07-11T14:39:29.879Z</time>
      </trkpt>
      <trkpt lat="44.67321" lon="0.11274">
        <ele>35.033849</ele>
        <time>2022-07-11T14:39:37.897Z</time>
      </trkpt>
      <trkpt lat="44.67338" lon="0.11291">
        <ele>35.286844</ele>
        <time>2022-07-11T14:39:43.205Z</time>
      </trkpt>
      <trkpt lat="44.67358" lon="0.1136">
        <ele>35.934591</ele>
        <time>2022-07-11T14:39:55.686Z</time>
      </trkpt>
      <trkpt lat="44.67361" lon="0.11399">
        <ele>36.272296</ele>
        <time>2022-07-11T14:40:01.713Z</time>
      </trkpt>
      <trkpt lat="44.67359" lon="0.11439">
        <ele>36.614129</ele>
        <time>2022-07-11T14:40:07.643Z</time>
      </trkpt>
      <trkpt lat="44.67345" lon="0.11528">
        <ele>36.057104</ele>
        <time>2022-07-11T14:40:18.510Z</time>
      </trkpt>
      <trkpt lat="44.67339" lon="0.11599">
        <ele>35.366079</ele>
        <time>2022-07-11T14:40:26.077Z</time>
      </trkpt>
      <trkpt lat="44.67341" lon="0.11701">
        <ele>34.373504</ele>
        <time>2022-07-11T14:40:36.661Z</time>
      </trkpt>
      <trkpt lat="44.67346" lon="0.1175">
        <ele>33.946217</ele>
        <time>2022-07-11T14:40:41.816Z</time>
      </trkpt>
      <trkpt lat="44.67353" lon="0.11798">
        <ele>33.535223</ele>
        <time>2022-07-11T14:40:46.988Z</time>
      </trkpt>
      <trkpt lat="44.67368" lon="0.11953">
        <ele>32.199046</ele>
        <time>2022-07-11T14:41:04.737Z</time>
      </trkpt>
      <trkpt lat="44.67374" lon="0.11994">
        <ele>32.12947</ele>
        <time>2022-07-11T14:41:09.789Z</time>
      </trkpt>
      <trkpt lat="44.6739" lon="0.12061">
        <ele>32.064085</ele>
        <time>2022-07-11T14:41:18.783Z</time>
      </trkpt>
      <trkpt lat="44.67405" lon="0.12109">
        <ele>32.015776</ele>
        <time>2022-07-11T14:41:25.654Z</time>
      </trkpt>
      <trkpt lat="44.6741" lon="0.12125">
        <ele>32.000324</ele>
        <time>2022-07-11T14:41:27.873Z</time>
      </trkpt>
      <trkpt lat="44.67412" lon="0.12133">
        <ele>31.991996</ele>
        <time>2022-07-11T14:41:29.083Z</time>
      </trkpt>
      <trkpt lat="44.67415" lon="0.12147">
        <ele>31.978904</ele>
        <time>2022-07-11T14:41:30.914Z</time>
      </trkpt>
      <trkpt lat="44.67421" lon="0.12187">
        <ele>31.940814</ele>
        <time>2022-07-11T14:41:36.380Z</time>
      </trkpt>
      <trkpt lat="44.67423" lon="0.12243">
        <ele>31.70729</ele>
        <time>2022-07-11T14:41:43.351Z</time>
      </trkpt>
      <trkpt lat="44.67423" lon="0.12251">
        <ele>31.665629</ele>
        <time>2022-07-11T14:41:44.378Z</time>
      </trkpt>
      <trkpt lat="44.67422" lon="0.12283">
        <ele>31.506347</ele>
        <time>2022-07-11T14:41:48.287Z</time>
      </trkpt>
      <trkpt lat="44.67397" lon="0.12651">
        <ele>29.406372</ele>
        <time>2022-07-11T14:42:29.838Z</time>
      </trkpt>
      <trkpt lat="44.67399" lon="0.12715">
        <ele>29.119446</ele>
        <time>2022-07-11T14:42:37.318Z</time>
      </trkpt>
      <trkpt lat="44.6742" lon="0.12809">
        <ele>29.375577</ele>
        <time>2022-07-11T14:42:49.506Z</time>
      </trkpt>
      <trkpt lat="44.67445" lon="0.1288">
        <ele>29.58313</ele>
        <time>2022-07-11T14:43:00.594Z</time>
      </trkpt>
      <trkpt lat="44.67511" lon="0.1306">
        <ele>31.733342</ele>
        <time>2022-07-11T14:43:34.926Z</time>
      </trkpt>
      <trkpt lat="44.67513" lon="0.13065">
        <ele>31.823291</ele>
        <time>2022-07-11T14:43:36.140Z</time>
      </trkpt>
      <trkpt lat="44.67676" lon="0.13514">
        <ele>40.122967</ele>
        <time>2022-07-11T14:45:18.413Z</time>
      </trkpt>
      <trkpt lat="44.67698" lon="0.13599">
        <ele>41.373927</ele>
        <time>2022-07-11T14:45:32.791Z</time>
      </trkpt>
      <trkpt lat="44.67702" lon="0.13626">
        <ele>41.660874</ele>
        <time>2022-07-11T14:45:36.745Z</time>
      </trkpt>
      <trkpt lat="44.67703" lon="0.13637">
        <ele>41.715602</ele>
        <time>2022-07-11T14:45:38.444Z</time>
      </trkpt>
      <trkpt lat="44.67706" lon="0.137">
        <ele>42.019664</ele>
        <time>2022-07-11T14:45:47.474Z</time>
      </trkpt>
      <trkpt lat="44.67707" lon="0.1371">
        <ele>42.065975</ele>
        <time>2022-07-11T14:45:48.805Z</time>
      </trkpt>
      <trkpt lat="44.67723" lon="0.14013">
        <ele>43.318186</ele>
        <time>2022-07-11T14:46:32.552Z</time>
      </trkpt>
      <trkpt lat="44.67792" lon="0.14717">
        <ele>45.438281</ele>
        <time>2022-07-11T14:48:07.400Z</time>
      </trkpt>
      <trkpt lat="44.67815" lon="0.14945">
        <ele>47.509882</ele>
        <time>2022-07-11T14:48:49.425Z</time>
      </trkpt>
      <trkpt lat="44.67824" lon="0.14992">
        <ele>47.9361</ele>
        <time>2022-07-11T14:48:57.975Z</time>
      </trkpt>
      <trkpt lat="44.67833" lon="0.15017">
        <ele>48.179916</ele>
        <time>2022-07-11T14:49:02.548Z</time>
      </trkpt>
      <trkpt lat="44.67854" lon="0.15047">
        <ele>48.54681</ele>
        <time>2022-07-11T14:49:09.133Z</time>
      </trkpt>
      <trkpt lat="44.67879" lon="0.15064">
        <ele>48.883787</ele>
        <time>2022-07-11T14:49:14.638Z</time>
      </trkpt>
      <trkpt lat="44.6799" lon="0.15098">
        <ele>48.850063</ele>
        <time>2022-07-11T14:49:34.552Z</time>
      </trkpt>
      <trkpt lat="44.68022" lon="0.15127">
        <ele>48.764661</ele>
        <time>2022-07-11T14:49:41.051Z</time>
      </trkpt>
      <trkpt lat="44.68033" lon="0.15148">
        <ele>48.721362</ele>
        <time>2022-07-11T14:49:44.291Z</time>
      </trkpt>
      <trkpt lat="44.68042" lon="0.15174">
        <ele>48.675776</ele>
        <time>2022-07-11T14:49:47.663Z</time>
      </trkpt>
      <trkpt lat="44.68051" lon="0.15226">
        <ele>48.157897</ele>
        <time>2022-07-11T14:49:53.851Z</time>
      </trkpt>
      <trkpt lat="44.68052" lon="0.15327">
        <ele>47.075969</ele>
        <time>2022-07-11T14:50:05.188Z</time>
      </trkpt>
      <trkpt lat="44.67989" lon="0.15953">
        <ele>37.186908</ele>
        <time>2022-07-11T14:51:09.729Z</time>
      </trkpt>
      <trkpt lat="44.67956" lon="0.16286">
        <ele>32.487312</ele>
        <time>2022-07-11T14:51:43.930Z</time>
      </trkpt>
      <trkpt lat="44.67942" lon="0.16423">
        <ele>31.417203</ele>
        <time>2022-07-11T14:52:00.482Z</time>
      </trkpt>
      <trkpt lat="44.67938" lon="0.1647">
        <ele>31.753259</ele>
        <time>2022-07-11T14:52:07.170Z</time>
      </trkpt>
      <trkpt lat="44.67936" lon="0.16488">
        <ele>31.949279</ele>
        <time>2022-07-11T14:52:09.923Z</time>
      </trkpt>
      <trkpt lat="44.67918" lon="0.1667">
        <ele>33.904011</ele>
        <time>2022-07-11T14:52:43.033Z</time>
      </trkpt>
      <trkpt lat="44.67902" lon="0.16805">
        <ele>35.501765</ele>
        <time>2022-07-11T14:53:08.822Z</time>
      </trkpt>
      <trkpt lat="44.67877" lon="0.16894">
        <ele>36.630447</ele>
        <time>2022-07-11T14:53:25.480Z</time>
      </trkpt>
      <trkpt lat="44.6774" lon="0.17186">
        <ele>39.503739</ele>
        <time>2022-07-11T14:54:15.757Z</time>
      </trkpt>
      <trkpt lat="44.67724" lon="0.17218">
        <ele>40.245444</ele>
        <time>2022-07-11T14:54:22.256Z</time>
      </trkpt>
      <trkpt lat="44.67693" lon="0.17285">
        <ele>41.780784</ele>
        <time>2022-07-11T14:54:38.196Z</time>
      </trkpt>
      <trkpt lat="44.67673" lon="0.17316">
        <ele>42.583492</ele>
        <time>2022-07-11T14:54:48.426Z</time>
      </trkpt>
      <trkpt lat="44.67689" lon="0.17322">
        <ele>43.013388</ele>
        <time>2022-07-11T14:54:54.406Z</time>
      </trkpt>
      <trkpt lat="44.67709" lon="0.17339">
        <ele>44.572231</ele>
        <time>2022-07-11T14:55:04.372Z</time>
      </trkpt>
      <trkpt lat="44.6774" lon="0.1739">
        <ele>48.095164</ele>
        <time>2022-07-11T14:55:25.096Z</time>
      </trkpt>
      <trkpt lat="44.67747" lon="0.17406">
        <ele>49.102268</ele>
        <time>2022-07-11T14:55:31.670Z</time>
      </trkpt>
      <trkpt lat="44.67757" lon="0.17427">
        <ele>50.444119</ele>
        <time>2022-07-11T14:55:40.197Z</time>
      </trkpt>
      <trkpt lat="44.67766" lon="0.17448">
        <ele>51.722146</ele>
        <time>2022-07-11T14:55:48.842Z</time>
      </trkpt>
      <trkpt lat="44.67789" lon="0.17491">
        <ele>54.553122</ele>
        <time>2022-07-11T14:56:08.460Z</time>
      </trkpt>
      <trkpt lat="44.67901" lon="0.17684">
        <ele>70.812862</ele>
        <time>2022-07-11T14:57:47.384Z</time>
      </trkpt>
      <trkpt lat="44.67893" lon="0.17702">
        <ele>72.248397</ele>
        <time>2022-07-11T14:57:56.416Z</time>
      </trkpt>
      <trkpt lat="44.67874" lon="0.17719">
        <ele>74.391955</ele>
        <time>2022-07-11T14:58:08.673Z</time>
      </trkpt>
      <trkpt lat="44.67854" lon="0.17729">
        <ele>76.505694</ele>
        <time>2022-07-11T14:58:21.590Z</time>
      </trkpt>
      <trkpt lat="44.67824" lon="0.17758">
        <ele>80.026948</ele>
        <time>2022-07-11T14:58:42.573Z</time>
      </trkpt>
      <trkpt lat="44.67788" lon="0.17829">
        <ele>86.078902</ele>
        <time>2022-07-11T14:59:19.944Z</time>
      </trkpt>
      <trkpt lat="44.67732" lon="0.17902">
        <ele>92.707262</ele>
        <time>2022-07-11T15:00:03.217Z</time>
      </trkpt>
      <trkpt lat="44.67714" lon="0.1793">
        <ele>94.466844</ele>
        <time>2022-07-11T15:00:16.801Z</time>
      </trkpt>
      <trkpt lat="44.67697" lon="0.17975">
        <ele>96.815426</ele>
        <time>2022-07-11T15:00:33.360Z</time>
      </trkpt>
      <trkpt lat="44.67699" lon="0.18002">
        <ele>98.058941</ele>
        <time>2022-07-11T15:00:41.457Z</time>
      </trkpt>
      <trkpt lat="44.67709" lon="0.1802">
        <ele>99.146139</ele>
        <time>2022-07-11T15:00:48.607Z</time>
      </trkpt>
      <trkpt lat="44.6771" lon="0.18032">
        <ele>99.683034</ele>
        <time>2022-07-11T15:00:51.613Z</time>
      </trkpt>
      <trkpt lat="44.67705" lon="0.18044">
        <ele>100.358446</ele>
        <time>2022-07-11T15:00:55.735Z</time>
      </trkpt>
      <trkpt lat="44.67698" lon="0.18049">
        <ele>100.892464</ele>
        <time>2022-07-11T15:00:59.364Z</time>
      </trkpt>
      <trkpt lat="44.67706" lon="0.18093">
        <ele>102.794373</ele>
        <time>2022-07-11T15:01:10.798Z</time>
      </trkpt>
      <trkpt lat="44.67705" lon="0.18149">
        <ele>103.293331</ele>
        <time>2022-07-11T15:01:23.313Z</time>
      </trkpt>
      <trkpt lat="44.6771" lon="0.18188">
        <ele>103.643611</ele>
        <time>2022-07-11T15:01:30.544Z</time>
      </trkpt>
      <trkpt lat="44.67695" lon="0.18195">
        <ele>103.839638</ele>
        <time>2022-07-11T15:01:34.620Z</time>
      </trkpt>
      <trkpt lat="44.67673" lon="0.18318">
        <ele>104.963489</ele>
        <time>2022-07-11T15:01:52.003Z</time>
      </trkpt>
      <trkpt lat="44.67664" lon="0.18367">
        <ele>103.390454</ele>
        <time>2022-07-11T15:01:57.652Z</time>
      </trkpt>
      <trkpt lat="44.67654" lon="0.18364">
        <ele>102.937866</ele>
        <time>2022-07-11T15:01:58.886Z</time>
      </trkpt>
      <trkpt lat="44.67606" lon="0.18351">
        <ele>100.662084</ele>
        <time>2022-07-11T15:02:05.174Z</time>
      </trkpt>
      <trkpt lat="44.67604" lon="0.1834">
        <ele>100.30628</ele>
        <time>2022-07-11T15:02:06.215Z</time>
      </trkpt>
      <trkpt lat="44.67577" lon="0.18323">
        <ele>98.967416</ele>
        <time>2022-07-11T15:02:09.882Z</time>
      </trkpt>
      <trkpt lat="44.67577" lon="0.18322">
        <ele>98.947942</ele>
        <time>2022-07-11T15:02:09.927Z</time>
      </trkpt>
      <trkpt lat="44.67551" lon="0.18304">
        <ele>97.615845</ele>
        <time>2022-07-11T15:02:13.419Z</time>
      </trkpt>
      <trkpt lat="44.67543" lon="0.18323">
        <ele>96.92282</ele>
        <time>2022-07-11T15:02:15.269Z</time>
      </trkpt>
      <trkpt lat="44.67538" lon="0.18318">
        <ele>96.574791</ele>
        <time>2022-07-11T15:02:16.159Z</time>
      </trkpt>
      <trkpt lat="44.67541" lon="0.18298">
        <ele>95.590424</ele>
        <time>2022-07-11T15:02:17.855Z</time>
      </trkpt>
      <trkpt lat="44.67522" lon="0.18273">
        <ele>93.923479</ele>
        <time>2022-07-11T15:02:21.077Z</time>
      </trkpt>
      <trkpt lat="44.67518" lon="0.18255">
        <ele>93.048051</ele>
        <time>2022-07-11T15:02:22.594Z</time>
      </trkpt>
      <trkpt lat="44.67514" lon="0.18225">
        <ele>91.630296</ele>
        <time>2022-07-11T15:02:25.400Z</time>
      </trkpt>
      <trkpt lat="44.67519" lon="0.1817">
        <ele>89.044227</ele>
        <time>2022-07-11T15:02:30.121Z</time>
      </trkpt>
      <trkpt lat="44.67511" lon="0.18151">
        <ele>88.071123</ele>
        <time>2022-07-11T15:02:31.800Z</time>
      </trkpt>
      <trkpt lat="44.67497" lon="0.18264">
        <ele>83.560948</ele>
        <time>2022-07-11T15:02:42.127Z</time>
      </trkpt>
      <trkpt lat="44.6749" lon="0.18283">
        <ele>82.926119</ele>
        <time>2022-07-11T15:02:44.232Z</time>
      </trkpt>
      <trkpt lat="44.67476" lon="0.18298">
        <ele>82.18696</ele>
        <time>2022-07-11T15:02:46.420Z</time>
      </trkpt>
      <trkpt lat="44.67453" lon="0.18309">
        <ele>81.120098</ele>
        <time>2022-07-11T15:02:49.741Z</time>
      </trkpt>
      <trkpt lat="44.67398" lon="0.183">
        <ele>78.805625</ele>
        <time>2022-07-11T15:02:57.433Z</time>
      </trkpt>
      <trkpt lat="44.6737" lon="0.18303">
        <ele>77.628404</ele>
        <time>2022-07-11T15:03:01.145Z</time>
      </trkpt>
      <trkpt lat="44.67347" lon="0.18322">
        <ele>76.001188</ele>
        <time>2022-07-11T15:03:04.546Z</time>
      </trkpt>
      <trkpt lat="44.67306" lon="0.18382">
        <ele>72.117752</ele>
        <time>2022-07-11T15:03:11.915Z</time>
      </trkpt>
      <trkpt lat="44.67268" lon="0.18406">
        <ele>69.388238</ele>
        <time>2022-07-11T15:03:16.938Z</time>
      </trkpt>
      <trkpt lat="44.67239" lon="0.18418">
        <ele>67.481644</ele>
        <time>2022-07-11T15:03:20.392Z</time>
      </trkpt>
      <trkpt lat="44.671" lon="0.18473">
        <ele>56.727778</ele>
        <time>2022-07-11T15:03:37.389Z</time>
      </trkpt>
      <trkpt lat="44.67079" lon="0.18501">
        <ele>54.546655</ele>
        <time>2022-07-11T15:03:40.819Z</time>
      </trkpt>
      <trkpt lat="44.67059" lon="0.18562">
        <ele>51.243877</ele>
        <time>2022-07-11T15:03:46.542Z</time>
      </trkpt>
      <trkpt lat="44.67033" lon="0.18629">
        <ele>48.301574</ele>
        <time>2022-07-11T15:03:53.366Z</time>
      </trkpt>
      <trkpt lat="44.67009" lon="0.18662">
        <ele>46.535496</ele>
        <time>2022-07-11T15:03:57.575Z</time>
      </trkpt>
      <trkpt lat="44.66992" lon="0.18676">
        <ele>45.479552</ele>
        <time>2022-07-11T15:04:00.060Z</time>
      </trkpt>
      <trkpt lat="44.66988" lon="0.18678">
        <ele>45.241083</ele>
        <time>2022-07-11T15:04:00.629Z</time>
      </trkpt>
      <trkpt lat="44.66983" lon="0.18681">
        <ele>44.915596</ele>
        <time>2022-07-11T15:04:01.400Z</time>
      </trkpt>
      <trkpt lat="44.669" lon="0.18708">
        <ele>40.866239</ele>
        <time>2022-07-11T15:04:12.171Z</time>
      </trkpt>
      <trkpt lat="44.66889" lon="0.18696">
        <ele>40.298335</ele>
        <time>2022-07-11T15:04:13.948Z</time>
      </trkpt>
      <trkpt lat="44.66881" lon="0.18699">
        <ele>39.931567</ele>
        <time>2022-07-11T15:04:15.106Z</time>
      </trkpt>
      <trkpt lat="44.66877" lon="0.18716">
        <ele>39.432643</ele>
        <time>2022-07-11T15:04:16.725Z</time>
      </trkpt>
      <trkpt lat="44.66815" lon="0.18732">
        <ele>36.88368</ele>
        <time>2022-07-11T15:04:24.824Z</time>
      </trkpt>
      <trkpt lat="44.66663" lon="0.18776">
        <ele>32.746678</ele>
        <time>2022-07-11T15:04:46.558Z</time>
      </trkpt>
      <trkpt lat="44.6664" lon="0.18783">
        <ele>32.24342</ele>
        <time>2022-07-11T15:04:50.310Z</time>
      </trkpt>
      <trkpt lat="44.66571" lon="0.18803">
        <ele>31.236048</ele>
        <time>2022-07-11T15:05:01.400Z</time>
      </trkpt>
      <trkpt lat="44.66437" lon="0.18843">
        <ele>30.986767</ele>
        <time>2022-07-11T15:05:25.526Z</time>
      </trkpt>
      <trkpt lat="44.663" lon="0.18882">
        <ele>31.55881</ele>
        <time>2022-07-11T15:05:53.018Z</time>
      </trkpt>
      <trkpt lat="44.66294" lon="0.18884">
        <ele>31.59225</ele>
        <time>2022-07-11T15:05:54.443Z</time>
      </trkpt>
      <trkpt lat="44.66267" lon="0.18892">
        <ele>31.730029</ele>
        <time>2022-07-11T15:06:00.234Z</time>
      </trkpt>
      <trkpt lat="44.66216" lon="0.18906">
        <ele>31.954776</ele>
        <time>2022-07-11T15:06:10.992Z</time>
      </trkpt>
      <trkpt lat="44.66144" lon="0.18927">
        <ele>32.2218</ele>
        <time>2022-07-11T15:06:25.297Z</time>
      </trkpt>
      <trkpt lat="44.66085" lon="0.18944">
        <ele>32.44212</ele>
        <time>2022-07-11T15:06:36.519Z</time>
      </trkpt>
      <trkpt lat="44.6608" lon="0.18946">
        <ele>32.460753</ele>
        <time>2022-07-11T15:06:37.463Z</time>
      </trkpt>
      <trkpt lat="44.66013" lon="0.18966">
        <ele>32.518786</ele>
        <time>2022-07-11T15:06:49.782Z</time>
      </trkpt>
      <trkpt lat="44.65841" lon="0.19015">
        <ele>32.566623</ele>
        <time>2022-07-11T15:07:20.811Z</time>
      </trkpt>
      <trkpt lat="44.65839" lon="0.19044">
        <ele>32.581419</ele>
        <time>2022-07-11T15:07:24.542Z</time>
      </trkpt>
      <trkpt lat="44.65832" lon="0.19103">
        <ele>32.611717</ele>
        <time>2022-07-11T15:07:32.098Z</time>
      </trkpt>
      <trkpt lat="44.65779" lon="0.1958">
        <ele>33.368624</ele>
        <time>2022-07-11T15:08:36.524Z</time>
      </trkpt>
      <trkpt lat="44.65777" lon="0.19601">
        <ele>33.41489</ele>
        <time>2022-07-11T15:08:39.585Z</time>
      </trkpt>
      <trkpt lat="44.65774" lon="0.19653">
        <ele>33.528253</ele>
        <time>2022-07-11T15:08:46.762Z</time>
      </trkpt>
      <trkpt lat="44.65777" lon="0.1988">
        <ele>33.780815</ele>
        <time>2022-07-11T15:09:16.793Z</time>
      </trkpt>
      <trkpt lat="44.65768" lon="0.20013">
        <ele>33.8302</ele>
        <time>2022-07-11T15:09:33.484Z</time>
      </trkpt>
      <trkpt lat="44.6575" lon="0.20229">
        <ele>33.783268</ele>
        <time>2022-07-11T15:10:01.139Z</time>
      </trkpt>
      <trkpt lat="44.65726" lon="0.20353">
        <ele>33.709339</ele>
        <time>2022-07-11T15:10:17.255Z</time>
      </trkpt>
      <trkpt lat="44.65677" lon="0.2068">
        <ele>33.416732</ele>
        <time>2022-07-11T15:10:58.407Z</time>
      </trkpt>
      <trkpt lat="44.65576" lon="0.20943">
        <ele>34.166997</ele>
        <time>2022-07-11T15:11:38.474Z</time>
      </trkpt>
      <trkpt lat="44.65351" lon="0.21418">
        <ele>39.153164</ele>
        <time>2022-07-11T15:13:13.880Z</time>
      </trkpt>
      <trkpt lat="44.65306" lon="0.21502">
        <ele>39.741818</ele>
        <time>2022-07-11T15:13:29.026Z</time>
      </trkpt>
      <trkpt lat="44.65282" lon="0.21536">
        <ele>40.012052</ele>
        <time>2022-07-11T15:13:35.457Z</time>
      </trkpt>
      <trkpt lat="44.65139" lon="0.21776">
        <ele>39.697932</ele>
        <time>2022-07-11T15:14:13.661Z</time>
      </trkpt>
      <trkpt lat="44.65082" lon="0.21835">
        <ele>39.783675</ele>
        <time>2022-07-11T15:14:26.256Z</time>
      </trkpt>
      <trkpt lat="44.65013" lon="0.21881">
        <ele>39.930359</ele>
        <time>2022-07-11T15:14:41.198Z</time>
      </trkpt>
      <trkpt lat="44.64726" lon="0.22066">
        <ele>42.227237</ele>
        <time>2022-07-11T15:15:48.512Z</time>
      </trkpt>
      <trkpt lat="44.64654" lon="0.22119">
        <ele>42.328737</ele>
        <time>2022-07-11T15:16:02.659Z</time>
      </trkpt>
      <trkpt lat="44.6457" lon="0.22201">
        <ele>42.043427</ele>
        <time>2022-07-11T15:16:19.869Z</time>
      </trkpt>
      <trkpt lat="44.64533" lon="0.22213">
        <ele>41.960806</ele>
        <time>2022-07-11T15:16:26.268Z</time>
      </trkpt>
      <trkpt lat="44.64498" lon="0.22211">
        <ele>42.000207</ele>
        <time>2022-07-11T15:16:32.256Z</time>
      </trkpt>
      <trkpt lat="44.6448" lon="0.22203">
        <ele>42.022615</ele>
        <time>2022-07-11T15:16:35.716Z</time>
      </trkpt>
      <trkpt lat="44.6443" lon="0.22273">
        <ele>42.103553</ele>
        <time>2022-07-11T15:16:48.635Z</time>
      </trkpt>
      <trkpt lat="44.6433" lon="0.22416">
        <ele>42.621455</ele>
        <time>2022-07-11T15:17:16.639Z</time>
      </trkpt>
      <trkpt lat="44.64222" lon="0.22533">
        <ele>43.322658</ele>
        <time>2022-07-11T15:17:43.799Z</time>
      </trkpt>
      <trkpt lat="44.64206" lon="0.22568">
        <ele>43.487454</ele>
        <time>2022-07-11T15:17:49.778Z</time>
      </trkpt>
      <trkpt lat="44.64186" lon="0.22656">
        <ele>43.846393</ele>
        <time>2022-07-11T15:18:02.844Z</time>
      </trkpt>
      <trkpt lat="44.64174" lon="0.22692">
        <ele>44.002744</ele>
        <time>2022-07-11T15:18:08.530Z</time>
      </trkpt>
      <trkpt lat="44.6408" lon="0.22889">
        <ele>44.916935</ele>
        <time>2022-07-11T15:18:42.471Z</time>
      </trkpt>
      <trkpt lat="44.64066" lon="0.22928">
        <ele>45.057816</ele>
        <time>2022-07-11T15:18:48.524Z</time>
      </trkpt>
      <trkpt lat="44.64053" lon="0.2302">
        <ele>45.266495</ele>
        <time>2022-07-11T15:19:01.388Z</time>
      </trkpt>
      <trkpt lat="44.64042" lon="0.23087">
        <ele>45.420277</ele>
        <time>2022-07-11T15:19:10.762Z</time>
      </trkpt>
      <trkpt lat="44.64031" lon="0.23118">
        <ele>45.497879</ele>
        <time>2022-07-11T15:19:15.388Z</time>
      </trkpt>
      <trkpt lat="44.64004" lon="0.23171">
        <ele>45.541147</ele>
        <time>2022-07-11T15:19:24.173Z</time>
      </trkpt>
      <trkpt lat="44.63905" lon="0.23352">
        <ele>45.187142</ele>
        <time>2022-07-11T15:19:52.506Z</time>
      </trkpt>
      <trkpt lat="44.63893" lon="0.23401">
        <ele>44.725329</ele>
        <time>2022-07-11T15:19:58.364Z</time>
      </trkpt>
      <trkpt lat="44.63862" lon="0.23625">
        <ele>42.664018</ele>
        <time>2022-07-11T15:20:23.055Z</time>
      </trkpt>
      <trkpt lat="44.63857" lon="0.23652">
        <ele>42.408215</ele>
        <time>2022-07-11T15:20:25.973Z</time>
      </trkpt>
      <trkpt lat="44.63817" lon="0.23863">
        <ele>40.588686</ele>
        <time>2022-07-11T15:20:50.025Z</time>
      </trkpt>
      <trkpt lat="44.63798" lon="0.23929">
        <ele>40.550232</ele>
        <time>2022-07-11T15:20:58.707Z</time>
      </trkpt>
      <trkpt lat="44.63776" lon="0.23975">
        <ele>40.519684</ele>
        <time>2022-07-11T15:21:05.844Z</time>
      </trkpt>
      <trkpt lat="44.63711" lon="0.24053">
        <ele>40.571795</ele>
        <time>2022-07-11T15:21:22.364Z</time>
      </trkpt>
      <trkpt lat="44.63678" lon="0.24085">
        <ele>40.886234</ele>
        <time>2022-07-11T15:21:30.796Z</time>
      </trkpt>
      <trkpt lat="44.63637" lon="0.24124">
        <ele>41.280768</ele>
        <time>2022-07-11T15:21:41.950Z</time>
      </trkpt>
      <trkpt lat="44.63606" lon="0.24169">
        <ele>41.635498</ele>
        <time>2022-07-11T15:21:51.435Z</time>
      </trkpt>
      <trkpt lat="44.63588" lon="0.24242">
        <ele>42.055819</ele>
        <time>2022-07-11T15:22:02.585Z</time>
      </trkpt>
      <trkpt lat="44.63581" lon="0.24276">
        <ele>42.232581</ele>
        <time>2022-07-11T15:22:07.688Z</time>
      </trkpt>
      <trkpt lat="44.63566" lon="0.24349">
        <ele>42.618838</ele>
        <time>2022-07-11T15:22:18.888Z</time>
      </trkpt>
      <trkpt lat="44.63544" lon="0.24445">
        <ele>43.128544</ele>
        <time>2022-07-11T15:22:33.890Z</time>
      </trkpt>
      <trkpt lat="44.6353" lon="0.24529">
        <ele>43.571786</ele>
        <time>2022-07-11T15:22:46.034Z</time>
      </trkpt>
      <trkpt lat="44.63522" lon="0.24836">
        <ele>45.204995</ele>
        <time>2022-07-11T15:23:31.749Z</time>
      </trkpt>
      <trkpt lat="44.63496" lon="0.2501">
        <ele>46.093111</ele>
        <time>2022-07-11T15:23:58.407Z</time>
      </trkpt>
      <trkpt lat="44.63486" lon="0.25079">
        <ele>46.356671</ele>
        <time>2022-07-11T15:24:08.743Z</time>
      </trkpt>
      <trkpt lat="44.63485" lon="0.25086">
        <ele>46.38163</ele>
        <time>2022-07-11T15:24:09.681Z</time>
      </trkpt>
      <trkpt lat="44.63476" lon="0.25145">
        <ele>46.606143</ele>
        <time>2022-07-11T15:24:18.095Z</time>
      </trkpt>
      <trkpt lat="44.63461" lon="0.2525">
        <ele>46.894688</ele>
        <time>2022-07-11T15:24:32.154Z</time>
      </trkpt>
      <trkpt lat="44.63449" lon="0.25313">
        <ele>46.989275</ele>
        <time>2022-07-11T15:24:40.506Z</time>
      </trkpt>
      <trkpt lat="44.63445" lon="0.25336">
        <ele>47.023533</ele>
        <time>2022-07-11T15:24:43.553Z</time>
      </trkpt>
      <trkpt lat="44.63433" lon="0.2539">
        <ele>47.105961</ele>
        <time>2022-07-11T15:24:51.302Z</time>
      </trkpt>
      <trkpt lat="44.63426" lon="0.25416">
        <ele>47.146026</ele>
        <time>2022-07-11T15:24:55.256Z</time>
      </trkpt>
      <trkpt lat="44.63411" lon="0.25482">
        <ele>47.139434</ele>
        <time>2022-07-11T15:25:04.589Z</time>
      </trkpt>
      <trkpt lat="44.634" lon="0.25531">
        <ele>47.06828</ele>
        <time>2022-07-11T15:25:10.973Z</time>
      </trkpt>
      <trkpt lat="44.63393" lon="0.25562">
        <ele>47.024019</ele>
        <time>2022-07-11T15:25:14.897Z</time>
      </trkpt>
      <trkpt lat="44.63381" lon="0.25612">
        <ele>46.95183</ele>
        <time>2022-07-11T15:25:21.323Z</time>
      </trkpt>
      <trkpt lat="44.63378" lon="0.25622">
        <ele>46.936667</ele>
        <time>2022-07-11T15:25:22.725Z</time>
      </trkpt>
      <trkpt lat="44.6337" lon="0.25651">
        <ele>46.893776</ele>
        <time>2022-07-11T15:25:26.430Z</time>
      </trkpt>
      <trkpt lat="44.6335" lon="0.25706">
        <ele>46.762428</ele>
        <time>2022-07-11T15:25:33.760Z</time>
      </trkpt>
      <trkpt lat="44.63325" lon="0.25766">
        <ele>46.537641</ele>
        <time>2022-07-11T15:25:41.992Z</time>
      </trkpt>
      <trkpt lat="44.63301" lon="0.25824">
        <ele>46.31956</ele>
        <time>2022-07-11T15:25:49.702Z</time>
      </trkpt>
      <trkpt lat="44.63249" lon="0.25951">
        <ele>46.260443</ele>
        <time>2022-07-11T15:26:07.660Z</time>
      </trkpt>
      <trkpt lat="44.63229" lon="0.26017">
        <ele>46.561934</ele>
        <time>2022-07-11T15:26:17.953Z</time>
      </trkpt>
      <trkpt lat="44.63197" lon="0.26149">
        <ele>47.177861</ele>
        <time>2022-07-11T15:26:39.998Z</time>
      </trkpt>
      <trkpt lat="44.63143" lon="0.26371">
        <ele>48.762105</ele>
        <time>2022-07-11T15:27:16.897Z</time>
      </trkpt>
      <trkpt lat="44.63126" lon="0.26441">
        <ele>48.661256</ele>
        <time>2022-07-11T15:27:26.539Z</time>
      </trkpt>
      <trkpt lat="44.63093" lon="0.26556">
        <ele>48.434972</ele>
        <time>2022-07-11T15:27:41.303Z</time>
      </trkpt>
      <trkpt lat="44.63036" lon="0.26702">
        <ele>48.006028</ele>
        <time>2022-07-11T15:28:00.549Z</time>
      </trkpt>
      <trkpt lat="44.63006" lon="0.2691">
        <ele>47.616625</ele>
        <time>2022-07-11T15:28:26.807Z</time>
      </trkpt>
      <trkpt lat="44.6299" lon="0.2699">
        <ele>47.664159</ele>
        <time>2022-07-11T15:28:38.139Z</time>
      </trkpt>
      <trkpt lat="44.62864" lon="0.27273">
        <ele>47.746941</ele>
        <time>2022-07-11T15:29:21.877Z</time>
      </trkpt>
      <trkpt lat="44.62855" lon="0.27315">
        <ele>47.589509</ele>
        <time>2022-07-11T15:29:27.106Z</time>
      </trkpt>
      <trkpt lat="44.62796" lon="0.27816">
        <ele>43.750864</ele>
        <time>2022-07-11T15:30:23.775Z</time>
      </trkpt>
      <trkpt lat="44.62799" lon="0.27928">
        <ele>43.023085</ele>
        <time>2022-07-11T15:30:36.301Z</time>
      </trkpt>
      <trkpt lat="44.62811" lon="0.28019">
        <ele>42.427553</ele>
        <time>2022-07-11T15:30:46.776Z</time>
      </trkpt>
      <trkpt lat="44.62878" lon="0.28526">
        <ele>41.795153</ele>
        <time>2022-07-11T15:31:50.682Z</time>
      </trkpt>
      <trkpt lat="44.62878" lon="0.28576">
        <ele>42.021201</ele>
        <time>2022-07-11T15:31:58.146Z</time>
      </trkpt>
      <trkpt lat="44.62875" lon="0.28591">
        <ele>42.110574</ele>
        <time>2022-07-11T15:32:00.447Z</time>
      </trkpt>
      <trkpt lat="44.62869" lon="0.28607">
        <ele>42.223202</ele>
        <time>2022-07-11T15:32:03.392Z</time>
      </trkpt>
      <trkpt lat="44.62801" lon="0.28774">
        <ele>43.353632</ele>
        <time>2022-07-11T15:32:33.148Z</time>
      </trkpt>
      <trkpt lat="44.62792" lon="0.28796">
        <ele>43.431523</ele>
        <time>2022-07-11T15:32:37.030Z</time>
      </trkpt>
      <trkpt lat="44.62774" lon="0.28837">
        <ele>43.582113</ele>
        <time>2022-07-11T15:32:44.230Z</time>
      </trkpt>
      <trkpt lat="44.62743" lon="0.28917">
        <ele>43.865192</ele>
        <time>2022-07-11T15:32:57.012Z</time>
      </trkpt>
      <trkpt lat="44.62762" lon="0.28931">
        <ele>43.957303</ele>
        <time>2022-07-11T15:33:01.052Z</time>
      </trkpt>
      <trkpt lat="44.62766" lon="0.28988">
        <ele>44.090629</ele>
        <time>2022-07-11T15:33:08.425Z</time>
      </trkpt>
      <trkpt lat="44.62766" lon="0.28998">
        <ele>44.069658</ele>
        <time>2022-07-11T15:33:09.814Z</time>
      </trkpt>
      <trkpt lat="44.62731" lon="0.29106">
        <ele>43.841567</ele>
        <time>2022-07-11T15:33:24.608Z</time>
      </trkpt>
      <trkpt lat="44.62782" lon="0.29137">
        <ele>43.689552</ele>
        <time>2022-07-11T15:33:34.548Z</time>
      </trkpt>
      <trkpt lat="44.62753" lon="0.29285">
        <ele>43.568048</ele>
        <time>2022-07-11T15:33:54.200Z</time>
      </trkpt>
      <trkpt lat="44.62733" lon="0.29434">
        <ele>43.567316</ele>
        <time>2022-07-11T15:34:13.284Z</time>
      </trkpt>
      <trkpt lat="44.62715" lon="0.29725">
        <ele>45.003866</ele>
        <time>2022-07-11T15:34:55.418Z</time>
      </trkpt>
      <trkpt lat="44.62707" lon="0.29861">
        <ele>46.23676</ele>
        <time>2022-07-11T15:35:18.597Z</time>
      </trkpt>
      <trkpt lat="44.62695" lon="0.301">
        <ele>48.688717</ele>
        <time>2022-07-11T15:36:02.246Z</time>
      </trkpt>
      <trkpt lat="44.62688" lon="0.30147">
        <ele>49.196102</ele>
        <time>2022-07-11T15:36:10.362Z</time>
      </trkpt>
      <trkpt lat="44.62664" lon="0.30239">
        <ele>49.603541</ele>
        <time>2022-07-11T15:36:25.663Z</time>
      </trkpt>
      <trkpt lat="44.62647" lon="0.30301">
        <ele>49.718946</ele>
        <time>2022-07-11T15:36:34.783Z</time>
      </trkpt>
      <trkpt lat="44.62584" lon="0.30532">
        <ele>49.540539</ele>
        <time>2022-07-11T15:37:04.784Z</time>
      </trkpt>
      <trkpt lat="44.62509" lon="0.30811">
        <ele>48.698735</ele>
        <time>2022-07-11T15:37:40.497Z</time>
      </trkpt>
      <trkpt lat="44.62494" lon="0.30886">
        <ele>48.484946</ele>
        <time>2022-07-11T15:37:50.008Z</time>
      </trkpt>
      <trkpt lat="44.62492" lon="0.30921">
        <ele>48.428816</ele>
        <time>2022-07-11T15:37:54.383Z</time>
      </trkpt>
      <trkpt lat="44.62504" lon="0.31267">
        <ele>47.826847</ele>
        <time>2022-07-11T15:38:36.899Z</time>
      </trkpt>
      <trkpt lat="44.62506" lon="0.31314">
        <ele>47.731578</ele>
        <time>2022-07-11T15:38:42.667Z</time>
      </trkpt>
      <trkpt lat="44.6252" lon="0.31713">
        <ele>47.115057</ele>
        <time>2022-07-11T15:39:31.541Z</time>
      </trkpt>
      <trkpt lat="44.62511" lon="0.31842">
        <ele>47.075635</ele>
        <time>2022-07-11T15:39:47.932Z</time>
      </trkpt>
      <trkpt lat="44.62488" lon="0.31954">
        <ele>47.163891</ele>
        <time>2022-07-11T15:40:03.090Z</time>
      </trkpt>
      <trkpt lat="44.62349" lon="0.32386">
        <ele>48.147935</ele>
        <time>2022-07-11T15:41:06.630Z</time>
      </trkpt>
      <trkpt lat="44.62015" lon="0.3308">
        <ele>52.090092</ele>
        <time>2022-07-11T15:43:09.898Z</time>
      </trkpt>
      <trkpt lat="44.61891" lon="0.33333">
        <ele>52.701123</ele>
        <time>2022-07-11T15:43:52.599Z</time>
      </trkpt>
      <trkpt lat="44.61731" lon="0.33563">
        <ele>51.82406</ele>
        <time>2022-07-11T15:44:29.903Z</time>
      </trkpt>
      <trkpt lat="44.61558" lon="0.33803">
        <ele>52.186978</ele>
        <time>2022-07-11T15:45:18.188Z</time>
      </trkpt>
      <trkpt lat="44.61543" lon="0.33838">
        <ele>52.065239</ele>
        <time>2022-07-11T15:45:23.130Z</time>
      </trkpt>
      <trkpt lat="44.61536" lon="0.33878">
        <ele>51.942385</ele>
        <time>2022-07-11T15:45:27.892Z</time>
      </trkpt>
      <trkpt lat="44.61523" lon="0.34138">
        <ele>50.813431</ele>
        <time>2022-07-11T15:45:57.188Z</time>
      </trkpt>
      <trkpt lat="44.6153" lon="0.34205">
        <ele>50.46848</ele>
        <time>2022-07-11T15:46:05.699Z</time>
      </trkpt>
      <trkpt lat="44.61544" lon="0.3428">
        <ele>50.465626</ele>
        <time>2022-07-11T15:46:15.443Z</time>
      </trkpt>
      <trkpt lat="44.61544" lon="0.34362">
        <ele>50.616616</ele>
        <time>2022-07-11T15:46:26.034Z</time>
      </trkpt>
      <trkpt lat="44.61543" lon="0.34376">
        <ele>50.642798</ele>
        <time>2022-07-11T15:46:28.139Z</time>
      </trkpt>
      <trkpt lat="44.61531" lon="0.34462">
        <ele>50.804356</ele>
        <time>2022-07-11T15:46:40.372Z</time>
      </trkpt>
      <trkpt lat="44.61512" lon="0.34493">
        <ele>50.952087</ele>
        <time>2022-07-11T15:46:46.289Z</time>
      </trkpt>
      <trkpt lat="44.61468" lon="0.34545">
        <ele>51.309907</ele>
        <time>2022-07-11T15:46:57.617Z</time>
      </trkpt>
      <trkpt lat="44.61253" lon="0.34815">
        <ele>53.337534</ele>
        <time>2022-07-11T15:47:57.472Z</time>
      </trkpt>
      <trkpt lat="44.61206" lon="0.3487">
        <ele>53.726751</ele>
        <time>2022-07-11T15:48:10.730Z</time>
      </trkpt>
      <trkpt lat="44.61193" lon="0.34883">
        <ele>53.823423</ele>
        <time>2022-07-11T15:48:13.716Z</time>
      </trkpt>
      <trkpt lat="44.61165" lon="0.34909">
        <ele>54.035964</ele>
        <time>2022-07-11T15:48:20.504Z</time>
      </trkpt>
      <trkpt lat="44.61157" lon="0.34916">
        <ele>54.096827</ele>
        <time>2022-07-11T15:48:22.462Z</time>
      </trkpt>
      <trkpt lat="44.61114" lon="0.34952">
        <ele>54.416633</ele>
        <time>2022-07-11T15:48:32.516Z</time>
      </trkpt>
      <trkpt lat="44.61099" lon="0.34964">
        <ele>54.453904</ele>
        <time>2022-07-11T15:48:35.654Z</time>
      </trkpt>
      <trkpt lat="44.6108" lon="0.34977">
        <ele>54.481509</ele>
        <time>2022-07-11T15:48:39.694Z</time>
      </trkpt>
      <trkpt lat="44.61071" lon="0.34985">
        <ele>54.495553</ele>
        <time>2022-07-11T15:48:41.570Z</time>
      </trkpt>
      <trkpt lat="44.61001" lon="0.35038">
        <ele>54.600923</ele>
        <time>2022-07-11T15:48:56.453Z</time>
      </trkpt>
      <trkpt lat="44.60984" lon="0.35051">
        <ele>54.627162</ele>
        <time>2022-07-11T15:48:59.950Z</time>
      </trkpt>
      <trkpt lat="44.6096" lon="0.35068">
        <ele>54.662484</ele>
        <time>2022-07-11T15:49:04.505Z</time>
      </trkpt>
      <trkpt lat="44.60952" lon="0.35074">
        <ele>54.673011</ele>
        <time>2022-07-11T15:49:06.035Z</time>
      </trkpt>
      <trkpt lat="44.60845" lon="0.35153">
        <ele>54.339006</ele>
        <time>2022-07-11T15:49:26.931Z</time>
      </trkpt>
      <trkpt lat="44.60806" lon="0.35182">
        <ele>54.216733</ele>
        <time>2022-07-11T15:49:34.501Z</time>
      </trkpt>
      <trkpt lat="44.60769" lon="0.35211">
        <ele>54.009995</ele>
        <time>2022-07-11T15:49:41.776Z</time>
      </trkpt>
      <trkpt lat="44.60659" lon="0.35294">
        <ele>53.279574</ele>
        <time>2022-07-11T15:50:02.341Z</time>
      </trkpt>
      <trkpt lat="44.60632" lon="0.35324">
        <ele>53.074693</ele>
        <time>2022-07-11T15:50:08.007Z</time>
      </trkpt>
      <trkpt lat="44.60602" lon="0.3536">
        <ele>52.844921</ele>
        <time>2022-07-11T15:50:14.267Z</time>
      </trkpt>
      <trkpt lat="44.60498" lon="0.35521">
        <ele>52.090867</ele>
        <time>2022-07-11T15:50:40.003Z</time>
      </trkpt>
      <trkpt lat="44.604" lon="0.35685">
        <ele>52.372769</ele>
        <time>2022-07-11T15:51:07.999Z</time>
      </trkpt>
      <trkpt lat="44.604" lon="0.35704">
        <ele>52.525485</ele>
        <time>2022-07-11T15:51:10.899Z</time>
      </trkpt>
      <trkpt lat="44.60373" lon="0.35726">
        <ele>53.061915</ele>
        <time>2022-07-11T15:51:17.856Z</time>
      </trkpt>
      <trkpt lat="44.60372" lon="0.35738">
        <ele>53.214182</ele>
        <time>2022-07-11T15:51:19.834Z</time>
      </trkpt>
      <trkpt lat="44.60323" lon="0.35812">
        <ele>54.496475</ele>
        <time>2022-07-11T15:51:38.311Z</time>
      </trkpt>
      <trkpt lat="44.60274" lon="0.35895">
        <ele>55.856279</ele>
        <time>2022-07-11T15:51:59.069Z</time>
      </trkpt>
      <trkpt lat="44.60249" lon="0.35937">
        <ele>56.596353</ele>
        <time>2022-07-11T15:52:09.874Z</time>
      </trkpt>
      <trkpt lat="44.60242" lon="0.3595">
        <ele>56.830126</ele>
        <time>2022-07-11T15:52:13.326Z</time>
      </trkpt>
      <trkpt lat="44.60192" lon="0.36039">
        <ele>58.369077</ele>
        <time>2022-07-11T15:52:34.916Z</time>
      </trkpt>
      <trkpt lat="44.60177" lon="0.36067">
        <ele>58.839797</ele>
        <time>2022-07-11T15:52:40.975Z</time>
      </trkpt>
      <trkpt lat="44.60182" lon="0.36072">
        <ele>58.963059</ele>
        <time>2022-07-11T15:52:42.583Z</time>
      </trkpt>
      <trkpt lat="44.6016" lon="0.36117">
        <ele>58.625744</ele>
        <time>2022-07-11T15:52:50.780Z</time>
      </trkpt>
      <trkpt lat="44.6015" lon="0.36121">
        <ele>58.532041</ele>
        <time>2022-07-11T15:52:52.519Z</time>
      </trkpt>
      <trkpt lat="44.60147" lon="0.36127">
        <ele>58.47812</ele>
        <time>2022-07-11T15:52:53.542Z</time>
      </trkpt>
      <trkpt lat="44.60137" lon="0.36147">
        <ele>58.311406</ele>
        <time>2022-07-11T15:52:56.661Z</time>
      </trkpt>
      <trkpt lat="44.60156" lon="0.36168">
        <ele>58.080969</ele>
        <time>2022-07-11T15:53:01.797Z</time>
      </trkpt>
      <trkpt lat="44.60177" lon="0.36187">
        <ele>57.849382</ele>
        <time>2022-07-11T15:53:06.759Z</time>
      </trkpt>
      <trkpt lat="44.60189" lon="0.36158">
        <ele>57.621389</ele>
        <time>2022-07-11T15:53:10.470Z</time>
      </trkpt>
      <trkpt lat="44.60211" lon="0.36177">
        <ele>57.373154</ele>
        <time>2022-07-11T15:53:14.369Z</time>
      </trkpt>
    </trkseg>
  </trk>
</gpx>